<?xml version="1.0" encoding="UTF-8" standalone="no" ?>
<gpx xmlns="http://www.topografix.com/GPX/1/1" xmlns:xsi="http://www.w3.org/2001/XMLSchema-instance" xsi:schemaLocation="http://www.topografix.com/GPX/1/1 http://www.topografix.com/GPX/1/1/gpx.xsd" version="1.1" creator="VisuGPX - https://www.visugpx.com">
  <metadata>
    <name>VILLECROZE CHAPELLE SAINT VICTOR 07 10 2016</name>
    <desc><![CDATA[Randonnée à partir de la chapelle saint Victor avec une cascade de paysages]]></desc>
  </metadata>
  <trk>
    <name><![CDATA[Tracé actuel: 07 OCT 2016 08:33]]></name>
    <trkseg>
      <trkpt lat="43.58113" lon="6.27032">
        <ele>325.06</ele>
        <time>2016-10-07T06:33:03Z</time>
      </trkpt>
      <trkpt lat="43.58111" lon="6.2703">
        <ele>325.06</ele>
        <time>2016-10-07T06:33:04Z</time>
      </trkpt>
      <trkpt lat="43.5811" lon="6.27029">
        <ele>327.95</ele>
        <time>2016-10-07T06:33:15Z</time>
      </trkpt>
      <trkpt lat="43.58112" lon="6.27027">
        <ele>332.27</ele>
        <time>2016-10-07T06:33:23Z</time>
      </trkpt>
      <trkpt lat="43.58112" lon="6.27027">
        <ele>331.31</ele>
        <time>2016-10-07T06:33:24Z</time>
      </trkpt>
      <trkpt lat="43.58111" lon="6.27027">
        <ele>337.08</ele>
        <time>2016-10-07T06:33:32Z</time>
      </trkpt>
      <trkpt lat="43.58111" lon="6.27027">
        <ele>334.68</ele>
        <time>2016-10-07T06:33:33Z</time>
      </trkpt>
      <trkpt lat="43.5811" lon="6.27026">
        <ele>336.12</ele>
        <time>2016-10-07T06:33:36Z</time>
      </trkpt>
      <trkpt lat="43.58107" lon="6.27022">
        <ele>336.12</ele>
        <time>2016-10-07T06:33:48Z</time>
      </trkpt>
      <trkpt lat="43.58103" lon="6.27022">
        <ele>336.12</ele>
        <time>2016-10-07T06:33:58Z</time>
      </trkpt>
      <trkpt lat="43.58102" lon="6.27018">
        <ele>336.6</ele>
        <time>2016-10-07T06:34:03Z</time>
      </trkpt>
      <trkpt lat="43.58099" lon="6.27001">
        <ele>338.04</ele>
        <time>2016-10-07T06:34:16Z</time>
      </trkpt>
      <trkpt lat="43.58097" lon="6.26997">
        <ele>338.04</ele>
        <time>2016-10-07T06:34:19Z</time>
      </trkpt>
      <trkpt lat="43.58096" lon="6.2699">
        <ele>338.04</ele>
        <time>2016-10-07T06:34:24Z</time>
      </trkpt>
      <trkpt lat="43.58087" lon="6.26973">
        <ele>337.08</ele>
        <time>2016-10-07T06:34:38Z</time>
      </trkpt>
      <trkpt lat="43.58086" lon="6.26964">
        <ele>333.71</ele>
        <time>2016-10-07T06:34:46Z</time>
      </trkpt>
      <trkpt lat="43.58086" lon="6.26963">
        <ele>333.71</ele>
        <time>2016-10-07T06:34:47Z</time>
      </trkpt>
      <trkpt lat="43.58085" lon="6.26954">
        <ele>332.27</ele>
        <time>2016-10-07T06:34:55Z</time>
      </trkpt>
      <trkpt lat="43.58078" lon="6.26933">
        <ele>329.39</ele>
        <time>2016-10-07T06:35:09Z</time>
      </trkpt>
      <trkpt lat="43.5807" lon="6.26909">
        <ele>327.47</ele>
        <time>2016-10-07T06:35:24Z</time>
      </trkpt>
      <trkpt lat="43.58067" lon="6.26897">
        <ele>326.02</ele>
        <time>2016-10-07T06:35:32Z</time>
      </trkpt>
      <trkpt lat="43.58066" lon="6.26889">
        <ele>326.02</ele>
        <time>2016-10-07T06:35:36Z</time>
      </trkpt>
      <trkpt lat="43.58062" lon="6.26866">
        <ele>324.1</ele>
        <time>2016-10-07T06:35:51Z</time>
      </trkpt>
      <trkpt lat="43.5806" lon="6.26863">
        <ele>323.62</ele>
        <time>2016-10-07T06:35:53Z</time>
      </trkpt>
      <trkpt lat="43.58058" lon="6.2686">
        <ele>323.62</ele>
        <time>2016-10-07T06:35:55Z</time>
      </trkpt>
      <trkpt lat="43.58048" lon="6.26835">
        <ele>321.7</ele>
        <time>2016-10-07T06:36:11Z</time>
      </trkpt>
      <trkpt lat="43.58047" lon="6.26831">
        <ele>321.22</ele>
        <time>2016-10-07T06:36:13Z</time>
      </trkpt>
      <trkpt lat="43.58041" lon="6.26806">
        <ele>319.3</ele>
        <time>2016-10-07T06:36:29Z</time>
      </trkpt>
      <trkpt lat="43.58038" lon="6.26786">
        <ele>316.89</ele>
        <time>2016-10-07T06:36:44Z</time>
      </trkpt>
      <trkpt lat="43.5803" lon="6.26755">
        <ele>315.45</ele>
        <time>2016-10-07T06:37:02Z</time>
      </trkpt>
      <trkpt lat="43.5803" lon="6.26752">
        <ele>314.97</ele>
        <time>2016-10-07T06:37:04Z</time>
      </trkpt>
      <trkpt lat="43.58035" lon="6.26728">
        <ele>314.49</ele>
        <time>2016-10-07T06:37:16Z</time>
      </trkpt>
      <trkpt lat="43.58036" lon="6.26721">
        <ele>314.49</ele>
        <time>2016-10-07T06:37:20Z</time>
      </trkpt>
      <trkpt lat="43.58037" lon="6.26695">
        <ele>314.01</ele>
        <time>2016-10-07T06:37:36Z</time>
      </trkpt>
      <trkpt lat="43.58038" lon="6.26673">
        <ele>314.01</ele>
        <time>2016-10-07T06:37:51Z</time>
      </trkpt>
      <trkpt lat="43.58035" lon="6.26666">
        <ele>313.53</ele>
        <time>2016-10-07T06:37:55Z</time>
      </trkpt>
      <trkpt lat="43.58035" lon="6.2666">
        <ele>314.01</ele>
        <time>2016-10-07T06:38:01Z</time>
      </trkpt>
      <trkpt lat="43.58038" lon="6.26651">
        <ele>314.97</ele>
        <time>2016-10-07T06:38:08Z</time>
      </trkpt>
      <trkpt lat="43.58037" lon="6.26624">
        <ele>315.45</ele>
        <time>2016-10-07T06:38:23Z</time>
      </trkpt>
      <trkpt lat="43.58037" lon="6.26618">
        <ele>315.45</ele>
        <time>2016-10-07T06:38:44Z</time>
      </trkpt>
      <trkpt lat="43.58037" lon="6.26604">
        <ele>315.93</ele>
        <time>2016-10-07T06:39:03Z</time>
      </trkpt>
      <trkpt lat="43.58037" lon="6.26597">
        <ele>315.93</ele>
        <time>2016-10-07T06:39:06Z</time>
      </trkpt>
      <trkpt lat="43.58036" lon="6.26588">
        <ele>316.41</ele>
        <time>2016-10-07T06:39:21Z</time>
      </trkpt>
      <trkpt lat="43.58037" lon="6.26587">
        <ele>316.41</ele>
        <time>2016-10-07T06:39:40Z</time>
      </trkpt>
      <trkpt lat="43.58039" lon="6.26584">
        <ele>316.41</ele>
        <time>2016-10-07T06:39:43Z</time>
      </trkpt>
      <trkpt lat="43.58041" lon="6.26581">
        <ele>316.41</ele>
        <time>2016-10-07T06:39:46Z</time>
      </trkpt>
      <trkpt lat="43.58042" lon="6.26579">
        <ele>316.41</ele>
        <time>2016-10-07T06:39:48Z</time>
      </trkpt>
      <trkpt lat="43.58046" lon="6.26577">
        <ele>316.41</ele>
        <time>2016-10-07T06:40:03Z</time>
      </trkpt>
      <trkpt lat="43.58046" lon="6.26576">
        <ele>316.41</ele>
        <time>2016-10-07T06:40:27Z</time>
      </trkpt>
      <trkpt lat="43.58046" lon="6.26577">
        <ele>316.41</ele>
        <time>2016-10-07T06:40:49Z</time>
      </trkpt>
      <trkpt lat="43.5805" lon="6.26574">
        <ele>316.41</ele>
        <time>2016-10-07T06:40:53Z</time>
      </trkpt>
      <trkpt lat="43.58056" lon="6.2657">
        <ele>316.41</ele>
        <time>2016-10-07T06:41:01Z</time>
      </trkpt>
      <trkpt lat="43.58074" lon="6.26569">
        <ele>318.81</ele>
        <time>2016-10-07T06:41:16Z</time>
      </trkpt>
      <trkpt lat="43.58088" lon="6.26559">
        <ele>321.22</ele>
        <time>2016-10-07T06:41:30Z</time>
      </trkpt>
      <trkpt lat="43.5809" lon="6.26559">
        <ele>321.7</ele>
        <time>2016-10-07T06:41:37Z</time>
      </trkpt>
      <trkpt lat="43.58097" lon="6.26558">
        <ele>323.62</ele>
        <time>2016-10-07T06:41:45Z</time>
      </trkpt>
      <trkpt lat="43.58107" lon="6.26554">
        <ele>325.54</ele>
        <time>2016-10-07T06:41:57Z</time>
      </trkpt>
      <trkpt lat="43.5812" lon="6.26551">
        <ele>327.47</ele>
        <time>2016-10-07T06:42:08Z</time>
      </trkpt>
      <trkpt lat="43.58139" lon="6.2656">
        <ele>330.35</ele>
        <time>2016-10-07T06:42:25Z</time>
      </trkpt>
      <trkpt lat="43.58149" lon="6.26572">
        <ele>333.23</ele>
        <time>2016-10-07T06:42:38Z</time>
      </trkpt>
      <trkpt lat="43.5815" lon="6.26573">
        <ele>333.23</ele>
        <time>2016-10-07T06:42:39Z</time>
      </trkpt>
      <trkpt lat="43.58164" lon="6.26578">
        <ele>335.64</ele>
        <time>2016-10-07T06:42:52Z</time>
      </trkpt>
      <trkpt lat="43.58183" lon="6.26579">
        <ele>338.04</ele>
        <time>2016-10-07T06:43:09Z</time>
      </trkpt>
      <trkpt lat="43.58187" lon="6.26575">
        <ele>338.52</ele>
        <time>2016-10-07T06:43:19Z</time>
      </trkpt>
      <trkpt lat="43.58198" lon="6.26564">
        <ele>339.48</ele>
        <time>2016-10-07T06:43:32Z</time>
      </trkpt>
      <trkpt lat="43.58204" lon="6.26558">
        <ele>341.89</ele>
        <time>2016-10-07T06:43:43Z</time>
      </trkpt>
      <trkpt lat="43.58213" lon="6.2654">
        <ele>344.29</ele>
        <time>2016-10-07T06:43:58Z</time>
      </trkpt>
      <trkpt lat="43.58215" lon="6.26534">
        <ele>344.77</ele>
        <time>2016-10-07T06:44:02Z</time>
      </trkpt>
      <trkpt lat="43.58219" lon="6.26512">
        <ele>347.17</ele>
        <time>2016-10-07T06:44:20Z</time>
      </trkpt>
      <trkpt lat="43.58218" lon="6.2649">
        <ele>348.62</ele>
        <time>2016-10-07T06:44:35Z</time>
      </trkpt>
      <trkpt lat="43.58221" lon="6.2648">
        <ele>350.06</ele>
        <time>2016-10-07T06:44:44Z</time>
      </trkpt>
      <trkpt lat="43.58221" lon="6.26471">
        <ele>351.5</ele>
        <time>2016-10-07T06:44:52Z</time>
      </trkpt>
      <trkpt lat="43.58216" lon="6.26459">
        <ele>353.42</ele>
        <time>2016-10-07T06:45:02Z</time>
      </trkpt>
      <trkpt lat="43.58214" lon="6.26441">
        <ele>354.86</ele>
        <time>2016-10-07T06:45:14Z</time>
      </trkpt>
      <trkpt lat="43.58215" lon="6.26433">
        <ele>355.83</ele>
        <time>2016-10-07T06:45:27Z</time>
      </trkpt>
      <trkpt lat="43.5822" lon="6.26426">
        <ele>356.79</ele>
        <time>2016-10-07T06:45:34Z</time>
      </trkpt>
      <trkpt lat="43.58223" lon="6.26417">
        <ele>356.79</ele>
        <time>2016-10-07T06:45:41Z</time>
      </trkpt>
      <trkpt lat="43.58223" lon="6.26407">
        <ele>356.79</ele>
        <time>2016-10-07T06:45:46Z</time>
      </trkpt>
      <trkpt lat="43.58222" lon="6.26405">
        <ele>356.79</ele>
        <time>2016-10-07T06:45:48Z</time>
      </trkpt>
      <trkpt lat="43.58218" lon="6.26397">
        <ele>356.79</ele>
        <time>2016-10-07T06:45:54Z</time>
      </trkpt>
      <trkpt lat="43.58218" lon="6.26384">
        <ele>357.75</ele>
        <time>2016-10-07T06:46:02Z</time>
      </trkpt>
      <trkpt lat="43.58219" lon="6.26373">
        <ele>358.23</ele>
        <time>2016-10-07T06:46:09Z</time>
      </trkpt>
      <trkpt lat="43.58218" lon="6.26366">
        <ele>358.23</ele>
        <time>2016-10-07T06:46:13Z</time>
      </trkpt>
      <trkpt lat="43.5822" lon="6.26347">
        <ele>359.19</ele>
        <time>2016-10-07T06:46:25Z</time>
      </trkpt>
      <trkpt lat="43.5822" lon="6.26343">
        <ele>359.19</ele>
        <time>2016-10-07T06:46:28Z</time>
      </trkpt>
      <trkpt lat="43.58225" lon="6.26334">
        <ele>360.15</ele>
        <time>2016-10-07T06:46:34Z</time>
      </trkpt>
      <trkpt lat="43.5823" lon="6.26331">
        <ele>361.59</ele>
        <time>2016-10-07T06:46:39Z</time>
      </trkpt>
      <trkpt lat="43.58232" lon="6.26318">
        <ele>361.59</ele>
        <time>2016-10-07T06:46:49Z</time>
      </trkpt>
      <trkpt lat="43.58226" lon="6.26306">
        <ele>364</ele>
        <time>2016-10-07T06:47:00Z</time>
      </trkpt>
      <trkpt lat="43.58223" lon="6.26295">
        <ele>365.44</ele>
        <time>2016-10-07T06:47:08Z</time>
      </trkpt>
      <trkpt lat="43.58222" lon="6.26291">
        <ele>365.44</ele>
        <time>2016-10-07T06:47:11Z</time>
      </trkpt>
      <trkpt lat="43.58228" lon="6.26275">
        <ele>368.32</ele>
        <time>2016-10-07T06:47:24Z</time>
      </trkpt>
      <trkpt lat="43.58228" lon="6.26273">
        <ele>368.32</ele>
        <time>2016-10-07T06:47:27Z</time>
      </trkpt>
      <trkpt lat="43.58229" lon="6.26268">
        <ele>368.8</ele>
        <time>2016-10-07T06:47:31Z</time>
      </trkpt>
      <trkpt lat="43.5823" lon="6.26248">
        <ele>370.24</ele>
        <time>2016-10-07T06:47:45Z</time>
      </trkpt>
      <trkpt lat="43.58229" lon="6.26247">
        <ele>370.73</ele>
        <time>2016-10-07T06:48:00Z</time>
      </trkpt>
      <trkpt lat="43.58229" lon="6.26246">
        <ele>370.73</ele>
        <time>2016-10-07T06:48:17Z</time>
      </trkpt>
      <trkpt lat="43.58226" lon="6.26233">
        <ele>371.21</ele>
        <time>2016-10-07T06:48:32Z</time>
      </trkpt>
      <trkpt lat="43.58225" lon="6.26228">
        <ele>370.73</ele>
        <time>2016-10-07T06:48:36Z</time>
      </trkpt>
      <trkpt lat="43.58223" lon="6.2621">
        <ele>369.28</ele>
        <time>2016-10-07T06:48:51Z</time>
      </trkpt>
      <trkpt lat="43.58219" lon="6.26195">
        <ele>367.84</ele>
        <time>2016-10-07T06:49:04Z</time>
      </trkpt>
      <trkpt lat="43.58215" lon="6.26177">
        <ele>366.4</ele>
        <time>2016-10-07T06:49:18Z</time>
      </trkpt>
      <trkpt lat="43.58208" lon="6.26166">
        <ele>365.44</ele>
        <time>2016-10-07T06:49:29Z</time>
      </trkpt>
      <trkpt lat="43.58204" lon="6.26157">
        <ele>364.96</ele>
        <time>2016-10-07T06:49:36Z</time>
      </trkpt>
      <trkpt lat="43.58203" lon="6.26152">
        <ele>364.48</ele>
        <time>2016-10-07T06:49:39Z</time>
      </trkpt>
      <trkpt lat="43.58204" lon="6.2614">
        <ele>364</ele>
        <time>2016-10-07T06:49:48Z</time>
      </trkpt>
      <trkpt lat="43.58208" lon="6.2613">
        <ele>364</ele>
        <time>2016-10-07T06:49:57Z</time>
      </trkpt>
      <trkpt lat="43.58213" lon="6.26121">
        <ele>363.52</ele>
        <time>2016-10-07T06:50:05Z</time>
      </trkpt>
      <trkpt lat="43.58204" lon="6.26093">
        <ele>363.52</ele>
        <time>2016-10-07T06:50:22Z</time>
      </trkpt>
      <trkpt lat="43.58201" lon="6.2609">
        <ele>363.52</ele>
        <time>2016-10-07T06:50:25Z</time>
      </trkpt>
      <trkpt lat="43.58201" lon="6.26081">
        <ele>364</ele>
        <time>2016-10-07T06:50:31Z</time>
      </trkpt>
      <trkpt lat="43.582" lon="6.26073">
        <ele>363.52</ele>
        <time>2016-10-07T06:50:36Z</time>
      </trkpt>
      <trkpt lat="43.58192" lon="6.26053">
        <ele>362.55</ele>
        <time>2016-10-07T06:50:50Z</time>
      </trkpt>
      <trkpt lat="43.58187" lon="6.26029">
        <ele>362.07</ele>
        <time>2016-10-07T06:51:04Z</time>
      </trkpt>
      <trkpt lat="43.58193" lon="6.26004">
        <ele>360.63</ele>
        <time>2016-10-07T06:51:20Z</time>
      </trkpt>
      <trkpt lat="43.58193" lon="6.25993">
        <ele>360.63</ele>
        <time>2016-10-07T06:51:27Z</time>
      </trkpt>
      <trkpt lat="43.58195" lon="6.25989">
        <ele>360.63</ele>
        <time>2016-10-07T06:51:30Z</time>
      </trkpt>
      <trkpt lat="43.58202" lon="6.25966">
        <ele>361.11</ele>
        <time>2016-10-07T06:51:44Z</time>
      </trkpt>
      <trkpt lat="43.582" lon="6.25943">
        <ele>359.67</ele>
        <time>2016-10-07T06:51:58Z</time>
      </trkpt>
      <trkpt lat="43.58205" lon="6.25915">
        <ele>359.19</ele>
        <time>2016-10-07T06:52:16Z</time>
      </trkpt>
      <trkpt lat="43.58202" lon="6.25891">
        <ele>357.75</ele>
        <time>2016-10-07T06:52:31Z</time>
      </trkpt>
      <trkpt lat="43.58202" lon="6.25878">
        <ele>357.27</ele>
        <time>2016-10-07T06:52:38Z</time>
      </trkpt>
      <trkpt lat="43.58195" lon="6.25855">
        <ele>356.79</ele>
        <time>2016-10-07T06:52:52Z</time>
      </trkpt>
      <trkpt lat="43.58195" lon="6.25852">
        <ele>357.27</ele>
        <time>2016-10-07T06:52:54Z</time>
      </trkpt>
      <trkpt lat="43.58184" lon="6.25837">
        <ele>358.71</ele>
        <time>2016-10-07T06:53:09Z</time>
      </trkpt>
      <trkpt lat="43.58178" lon="6.25833">
        <ele>359.19</ele>
        <time>2016-10-07T06:53:15Z</time>
      </trkpt>
      <trkpt lat="43.58173" lon="6.25824">
        <ele>359.67</ele>
        <time>2016-10-07T06:53:23Z</time>
      </trkpt>
      <trkpt lat="43.58171" lon="6.25809">
        <ele>360.63</ele>
        <time>2016-10-07T06:53:35Z</time>
      </trkpt>
      <trkpt lat="43.58175" lon="6.25801">
        <ele>362.07</ele>
        <time>2016-10-07T06:53:43Z</time>
      </trkpt>
      <trkpt lat="43.58176" lon="6.25797">
        <ele>362.07</ele>
        <time>2016-10-07T06:53:46Z</time>
      </trkpt>
      <trkpt lat="43.58179" lon="6.25795">
        <ele>362.07</ele>
        <time>2016-10-07T06:53:49Z</time>
      </trkpt>
      <trkpt lat="43.58185" lon="6.25791">
        <ele>363.52</ele>
        <time>2016-10-07T06:53:56Z</time>
      </trkpt>
      <trkpt lat="43.58188" lon="6.25789">
        <ele>363.52</ele>
        <time>2016-10-07T06:53:59Z</time>
      </trkpt>
      <trkpt lat="43.58193" lon="6.25786">
        <ele>364.48</ele>
        <time>2016-10-07T06:54:07Z</time>
      </trkpt>
      <trkpt lat="43.58197" lon="6.25782">
        <ele>365.92</ele>
        <time>2016-10-07T06:54:12Z</time>
      </trkpt>
      <trkpt lat="43.58199" lon="6.25779">
        <ele>365.92</ele>
        <time>2016-10-07T06:54:14Z</time>
      </trkpt>
      <trkpt lat="43.58209" lon="6.25758">
        <ele>368.32</ele>
        <time>2016-10-07T06:54:30Z</time>
      </trkpt>
      <trkpt lat="43.5821" lon="6.25756">
        <ele>368.32</ele>
        <time>2016-10-07T06:54:31Z</time>
      </trkpt>
      <trkpt lat="43.58212" lon="6.25743">
        <ele>369.76</ele>
        <time>2016-10-07T06:54:40Z</time>
      </trkpt>
      <trkpt lat="43.58205" lon="6.25725">
        <ele>369.76</ele>
        <time>2016-10-07T06:54:51Z</time>
      </trkpt>
      <trkpt lat="43.582" lon="6.2572">
        <ele>370.73</ele>
        <time>2016-10-07T06:54:56Z</time>
      </trkpt>
      <trkpt lat="43.58197" lon="6.25715">
        <ele>370.73</ele>
        <time>2016-10-07T06:54:59Z</time>
      </trkpt>
      <trkpt lat="43.58194" lon="6.25712">
        <ele>370.73</ele>
        <time>2016-10-07T06:55:02Z</time>
      </trkpt>
      <trkpt lat="43.5819" lon="6.25688">
        <ele>369.76</ele>
        <time>2016-10-07T06:55:17Z</time>
      </trkpt>
      <trkpt lat="43.58195" lon="6.25661">
        <ele>369.28</ele>
        <time>2016-10-07T06:55:32Z</time>
      </trkpt>
      <trkpt lat="43.582" lon="6.25646">
        <ele>369.76</ele>
        <time>2016-10-07T06:55:43Z</time>
      </trkpt>
      <trkpt lat="43.58207" lon="6.25619">
        <ele>370.73</ele>
        <time>2016-10-07T06:55:59Z</time>
      </trkpt>
      <trkpt lat="43.5822" lon="6.256">
        <ele>372.65</ele>
        <time>2016-10-07T06:56:14Z</time>
      </trkpt>
      <trkpt lat="43.58227" lon="6.25586">
        <ele>376.01</ele>
        <time>2016-10-07T06:56:28Z</time>
      </trkpt>
      <trkpt lat="43.58234" lon="6.25573">
        <ele>379.38</ele>
        <time>2016-10-07T06:56:40Z</time>
      </trkpt>
      <trkpt lat="43.58236" lon="6.25561">
        <ele>379.38</ele>
        <time>2016-10-07T06:56:46Z</time>
      </trkpt>
      <trkpt lat="43.58235" lon="6.25538">
        <ele>381.3</ele>
        <time>2016-10-07T06:56:58Z</time>
      </trkpt>
      <trkpt lat="43.58235" lon="6.25533">
        <ele>381.78</ele>
        <time>2016-10-07T06:57:01Z</time>
      </trkpt>
      <trkpt lat="43.58231" lon="6.25524">
        <ele>381.78</ele>
        <time>2016-10-07T06:57:07Z</time>
      </trkpt>
      <trkpt lat="43.58229" lon="6.25517">
        <ele>381.3</ele>
        <time>2016-10-07T06:57:26Z</time>
      </trkpt>
      <trkpt lat="43.5823" lon="6.25517">
        <ele>381.3</ele>
        <time>2016-10-07T06:57:49Z</time>
      </trkpt>
      <trkpt lat="43.5823" lon="6.25516">
        <ele>381.3</ele>
        <time>2016-10-07T06:58:21Z</time>
      </trkpt>
      <trkpt lat="43.5823" lon="6.25513">
        <ele>381.78</ele>
        <time>2016-10-07T06:58:43Z</time>
      </trkpt>
      <trkpt lat="43.5823" lon="6.25513">
        <ele>385.15</ele>
        <time>2016-10-07T06:58:49Z</time>
      </trkpt>
      <trkpt lat="43.5823" lon="6.25513">
        <ele>378.9</ele>
        <time>2016-10-07T06:58:50Z</time>
      </trkpt>
      <trkpt lat="43.5823" lon="6.25513">
        <ele>384.18</ele>
        <time>2016-10-07T06:58:51Z</time>
      </trkpt>
      <trkpt lat="43.5823" lon="6.25513">
        <ele>381.78</ele>
        <time>2016-10-07T06:59:11Z</time>
      </trkpt>
      <trkpt lat="43.5823" lon="6.25513">
        <ele>381.3</ele>
        <time>2016-10-07T06:59:25Z</time>
      </trkpt>
      <trkpt lat="43.58229" lon="6.25507">
        <ele>381.3</ele>
        <time>2016-10-07T06:59:30Z</time>
      </trkpt>
      <trkpt lat="43.58227" lon="6.25505">
        <ele>381.3</ele>
        <time>2016-10-07T06:59:33Z</time>
      </trkpt>
      <trkpt lat="43.58218" lon="6.25487">
        <ele>382.26</ele>
        <time>2016-10-07T06:59:47Z</time>
      </trkpt>
      <trkpt lat="43.58218" lon="6.25486">
        <ele>382.26</ele>
        <time>2016-10-07T06:59:48Z</time>
      </trkpt>
      <trkpt lat="43.58214" lon="6.25481">
        <ele>382.26</ele>
        <time>2016-10-07T06:59:51Z</time>
      </trkpt>
      <trkpt lat="43.58204" lon="6.25459">
        <ele>381.78</ele>
        <time>2016-10-07T07:00:05Z</time>
      </trkpt>
      <trkpt lat="43.58199" lon="6.25442">
        <ele>382.74</ele>
        <time>2016-10-07T07:00:18Z</time>
      </trkpt>
      <trkpt lat="43.58208" lon="6.25417">
        <ele>385.63</ele>
        <time>2016-10-07T07:00:37Z</time>
      </trkpt>
      <trkpt lat="43.58216" lon="6.25405">
        <ele>388.99</ele>
        <time>2016-10-07T07:00:48Z</time>
      </trkpt>
      <trkpt lat="43.58219" lon="6.25388">
        <ele>390.91</ele>
        <time>2016-10-07T07:01:03Z</time>
      </trkpt>
      <trkpt lat="43.58223" lon="6.25374">
        <ele>393.8</ele>
        <time>2016-10-07T07:01:15Z</time>
      </trkpt>
      <trkpt lat="43.58228" lon="6.25365">
        <ele>395.72</ele>
        <time>2016-10-07T07:01:24Z</time>
      </trkpt>
      <trkpt lat="43.58237" lon="6.25348">
        <ele>398.6</ele>
        <time>2016-10-07T07:01:39Z</time>
      </trkpt>
      <trkpt lat="43.5824" lon="6.25342">
        <ele>399.57</ele>
        <time>2016-10-07T07:01:44Z</time>
      </trkpt>
      <trkpt lat="43.58251" lon="6.25323">
        <ele>402.93</ele>
        <time>2016-10-07T07:02:00Z</time>
      </trkpt>
      <trkpt lat="43.58261" lon="6.25306">
        <ele>405.33</ele>
        <time>2016-10-07T07:02:14Z</time>
      </trkpt>
      <trkpt lat="43.58264" lon="6.25301">
        <ele>407.26</ele>
        <time>2016-10-07T07:02:20Z</time>
      </trkpt>
      <trkpt lat="43.58273" lon="6.25284">
        <ele>409.18</ele>
        <time>2016-10-07T07:02:34Z</time>
      </trkpt>
      <trkpt lat="43.58275" lon="6.25276">
        <ele>409.66</ele>
        <time>2016-10-07T07:02:38Z</time>
      </trkpt>
      <trkpt lat="43.58282" lon="6.25263">
        <ele>412.06</ele>
        <time>2016-10-07T07:02:52Z</time>
      </trkpt>
      <trkpt lat="43.58281" lon="6.25262">
        <ele>412.06</ele>
        <time>2016-10-07T07:03:21Z</time>
      </trkpt>
      <trkpt lat="43.58282" lon="6.25261">
        <ele>412.06</ele>
        <time>2016-10-07T07:03:23Z</time>
      </trkpt>
      <trkpt lat="43.58293" lon="6.25259">
        <ele>415.43</ele>
        <time>2016-10-07T07:03:36Z</time>
      </trkpt>
      <trkpt lat="43.58295" lon="6.25259">
        <ele>416.39</ele>
        <time>2016-10-07T07:03:40Z</time>
      </trkpt>
      <trkpt lat="43.58301" lon="6.25254">
        <ele>418.79</ele>
        <time>2016-10-07T07:03:49Z</time>
      </trkpt>
      <trkpt lat="43.58308" lon="6.25258">
        <ele>420.23</ele>
        <time>2016-10-07T07:03:57Z</time>
      </trkpt>
      <trkpt lat="43.58311" lon="6.25261">
        <ele>421.19</ele>
        <time>2016-10-07T07:04:01Z</time>
      </trkpt>
      <trkpt lat="43.58314" lon="6.25261">
        <ele>422.16</ele>
        <time>2016-10-07T07:04:04Z</time>
      </trkpt>
      <trkpt lat="43.58322" lon="6.25262">
        <ele>423.6</ele>
        <time>2016-10-07T07:04:13Z</time>
      </trkpt>
      <trkpt lat="43.58326" lon="6.25256">
        <ele>424.08</ele>
        <time>2016-10-07T07:04:17Z</time>
      </trkpt>
      <trkpt lat="43.58339" lon="6.25244">
        <ele>426.96</ele>
        <time>2016-10-07T07:04:32Z</time>
      </trkpt>
      <trkpt lat="43.58345" lon="6.25242">
        <ele>427.92</ele>
        <time>2016-10-07T07:04:37Z</time>
      </trkpt>
      <trkpt lat="43.58359" lon="6.25237">
        <ele>431.29</ele>
        <time>2016-10-07T07:04:52Z</time>
      </trkpt>
      <trkpt lat="43.58363" lon="6.25235">
        <ele>431.77</ele>
        <time>2016-10-07T07:04:56Z</time>
      </trkpt>
      <trkpt lat="43.58366" lon="6.25234">
        <ele>432.25</ele>
        <time>2016-10-07T07:04:58Z</time>
      </trkpt>
      <trkpt lat="43.58382" lon="6.2523">
        <ele>435.61</ele>
        <time>2016-10-07T07:05:13Z</time>
      </trkpt>
      <trkpt lat="43.58387" lon="6.2523">
        <ele>436.58</ele>
        <time>2016-10-07T07:05:26Z</time>
      </trkpt>
      <trkpt lat="43.58389" lon="6.2523">
        <ele>437.06</ele>
        <time>2016-10-07T07:05:46Z</time>
      </trkpt>
      <trkpt lat="43.58389" lon="6.2523">
        <ele>438.5</ele>
        <time>2016-10-07T07:06:12Z</time>
      </trkpt>
      <trkpt lat="43.5839" lon="6.2523">
        <ele>437.54</ele>
        <time>2016-10-07T07:06:35Z</time>
      </trkpt>
      <trkpt lat="43.5839" lon="6.2523">
        <ele>432.73</ele>
        <time>2016-10-07T07:06:47Z</time>
      </trkpt>
      <trkpt lat="43.5839" lon="6.2523">
        <ele>440.9</ele>
        <time>2016-10-07T07:06:48Z</time>
      </trkpt>
      <trkpt lat="43.5839" lon="6.2523">
        <ele>435.61</ele>
        <time>2016-10-07T07:06:50Z</time>
      </trkpt>
      <trkpt lat="43.5839" lon="6.2523">
        <ele>438.5</ele>
        <time>2016-10-07T07:06:51Z</time>
      </trkpt>
      <trkpt lat="43.58392" lon="6.25228">
        <ele>437.54</ele>
        <time>2016-10-07T07:07:02Z</time>
      </trkpt>
      <trkpt lat="43.58393" lon="6.25227">
        <ele>437.54</ele>
        <time>2016-10-07T07:07:17Z</time>
      </trkpt>
      <trkpt lat="43.58394" lon="6.25226">
        <ele>437.06</ele>
        <time>2016-10-07T07:07:41Z</time>
      </trkpt>
      <trkpt lat="43.58396" lon="6.25229">
        <ele>438.02</ele>
        <time>2016-10-07T07:07:54Z</time>
      </trkpt>
      <trkpt lat="43.58404" lon="6.25235">
        <ele>439.46</ele>
        <time>2016-10-07T07:08:07Z</time>
      </trkpt>
      <trkpt lat="43.58413" lon="6.25238">
        <ele>440.9</ele>
        <time>2016-10-07T07:08:21Z</time>
      </trkpt>
      <trkpt lat="43.58424" lon="6.25239">
        <ele>442.82</ele>
        <time>2016-10-07T07:08:33Z</time>
      </trkpt>
      <trkpt lat="43.58432" lon="6.25244">
        <ele>443.79</ele>
        <time>2016-10-07T07:08:41Z</time>
      </trkpt>
      <trkpt lat="43.58447" lon="6.25238">
        <ele>446.19</ele>
        <time>2016-10-07T07:08:55Z</time>
      </trkpt>
      <trkpt lat="43.58457" lon="6.25237">
        <ele>447.63</ele>
        <time>2016-10-07T07:09:04Z</time>
      </trkpt>
      <trkpt lat="43.58473" lon="6.25232">
        <ele>449.07</ele>
        <time>2016-10-07T07:09:17Z</time>
      </trkpt>
      <trkpt lat="43.58481" lon="6.25221">
        <ele>449.55</ele>
        <time>2016-10-07T07:09:25Z</time>
      </trkpt>
      <trkpt lat="43.5849" lon="6.25221">
        <ele>449.55</ele>
        <time>2016-10-07T07:09:36Z</time>
      </trkpt>
      <trkpt lat="43.58494" lon="6.25224">
        <ele>449.55</ele>
        <time>2016-10-07T07:09:42Z</time>
      </trkpt>
      <trkpt lat="43.58506" lon="6.25227">
        <ele>449.07</ele>
        <time>2016-10-07T07:09:52Z</time>
      </trkpt>
      <trkpt lat="43.58518" lon="6.25223">
        <ele>447.63</ele>
        <time>2016-10-07T07:10:07Z</time>
      </trkpt>
      <trkpt lat="43.58519" lon="6.25226">
        <ele>448.11</ele>
        <time>2016-10-07T07:10:23Z</time>
      </trkpt>
      <trkpt lat="43.5852" lon="6.25227">
        <ele>448.11</ele>
        <time>2016-10-07T07:10:54Z</time>
      </trkpt>
      <trkpt lat="43.5852" lon="6.25227">
        <ele>447.63</ele>
        <time>2016-10-07T07:11:15Z</time>
      </trkpt>
      <trkpt lat="43.58522" lon="6.25234">
        <ele>447.63</ele>
        <time>2016-10-07T07:11:21Z</time>
      </trkpt>
      <trkpt lat="43.58522" lon="6.25239">
        <ele>447.63</ele>
        <time>2016-10-07T07:11:25Z</time>
      </trkpt>
      <trkpt lat="43.58523" lon="6.25244">
        <ele>447.15</ele>
        <time>2016-10-07T07:11:29Z</time>
      </trkpt>
      <trkpt lat="43.5853" lon="6.25263">
        <ele>445.23</ele>
        <time>2016-10-07T07:11:42Z</time>
      </trkpt>
      <trkpt lat="43.5853" lon="6.25268">
        <ele>444.75</ele>
        <time>2016-10-07T07:11:45Z</time>
      </trkpt>
      <trkpt lat="43.58534" lon="6.25285">
        <ele>443.79</ele>
        <time>2016-10-07T07:11:56Z</time>
      </trkpt>
      <trkpt lat="43.58537" lon="6.25312">
        <ele>443.31</ele>
        <time>2016-10-07T07:12:12Z</time>
      </trkpt>
      <trkpt lat="43.58546" lon="6.25327">
        <ele>443.31</ele>
        <time>2016-10-07T07:12:25Z</time>
      </trkpt>
      <trkpt lat="43.58556" lon="6.25324">
        <ele>442.82</ele>
        <time>2016-10-07T07:12:37Z</time>
      </trkpt>
      <trkpt lat="43.58557" lon="6.25325">
        <ele>442.82</ele>
        <time>2016-10-07T07:12:58Z</time>
      </trkpt>
      <trkpt lat="43.58559" lon="6.25327">
        <ele>442.82</ele>
        <time>2016-10-07T07:13:05Z</time>
      </trkpt>
      <trkpt lat="43.58576" lon="6.25331">
        <ele>443.31</ele>
        <time>2016-10-07T07:13:20Z</time>
      </trkpt>
      <trkpt lat="43.58592" lon="6.25345">
        <ele>444.27</ele>
        <time>2016-10-07T07:13:34Z</time>
      </trkpt>
      <trkpt lat="43.58601" lon="6.25364">
        <ele>444.75</ele>
        <time>2016-10-07T07:13:48Z</time>
      </trkpt>
      <trkpt lat="43.58617" lon="6.25387">
        <ele>446.19</ele>
        <time>2016-10-07T07:14:02Z</time>
      </trkpt>
      <trkpt lat="43.5862" lon="6.25394">
        <ele>446.19</ele>
        <time>2016-10-07T07:14:06Z</time>
      </trkpt>
      <trkpt lat="43.5861" lon="6.25417">
        <ele>447.15</ele>
        <time>2016-10-07T07:14:21Z</time>
      </trkpt>
      <trkpt lat="43.58607" lon="6.25431">
        <ele>447.63</ele>
        <time>2016-10-07T07:14:29Z</time>
      </trkpt>
      <trkpt lat="43.58614" lon="6.25462">
        <ele>447.63</ele>
        <time>2016-10-07T07:14:46Z</time>
      </trkpt>
      <trkpt lat="43.58626" lon="6.25488">
        <ele>447.63</ele>
        <time>2016-10-07T07:15:03Z</time>
      </trkpt>
      <trkpt lat="43.58627" lon="6.25492">
        <ele>447.15</ele>
        <time>2016-10-07T07:15:21Z</time>
      </trkpt>
      <trkpt lat="43.58627" lon="6.25494">
        <ele>447.15</ele>
        <time>2016-10-07T07:15:23Z</time>
      </trkpt>
      <trkpt lat="43.58628" lon="6.25503">
        <ele>447.15</ele>
        <time>2016-10-07T07:15:27Z</time>
      </trkpt>
      <trkpt lat="43.58628" lon="6.25518">
        <ele>447.15</ele>
        <time>2016-10-07T07:15:34Z</time>
      </trkpt>
      <trkpt lat="43.5863" lon="6.25526">
        <ele>447.15</ele>
        <time>2016-10-07T07:15:38Z</time>
      </trkpt>
      <trkpt lat="43.5863" lon="6.25554">
        <ele>446.19</ele>
        <time>2016-10-07T07:15:52Z</time>
      </trkpt>
      <trkpt lat="43.58629" lon="6.25584">
        <ele>445.71</ele>
        <time>2016-10-07T07:16:07Z</time>
      </trkpt>
      <trkpt lat="43.58623" lon="6.25594">
        <ele>445.71</ele>
        <time>2016-10-07T07:16:13Z</time>
      </trkpt>
      <trkpt lat="43.58621" lon="6.25597">
        <ele>445.71</ele>
        <time>2016-10-07T07:16:16Z</time>
      </trkpt>
      <trkpt lat="43.58606" lon="6.25616">
        <ele>445.71</ele>
        <time>2016-10-07T07:16:31Z</time>
      </trkpt>
      <trkpt lat="43.58604" lon="6.25646">
        <ele>446.67</ele>
        <time>2016-10-07T07:16:46Z</time>
      </trkpt>
      <trkpt lat="43.58601" lon="6.25678">
        <ele>447.15</ele>
        <time>2016-10-07T07:17:02Z</time>
      </trkpt>
      <trkpt lat="43.58606" lon="6.25694">
        <ele>447.63</ele>
        <time>2016-10-07T07:17:11Z</time>
      </trkpt>
      <trkpt lat="43.58621" lon="6.25716">
        <ele>448.59</ele>
        <time>2016-10-07T07:17:27Z</time>
      </trkpt>
      <trkpt lat="43.58636" lon="6.25736">
        <ele>449.07</ele>
        <time>2016-10-07T07:17:42Z</time>
      </trkpt>
      <trkpt lat="43.58644" lon="6.25738">
        <ele>449.55</ele>
        <time>2016-10-07T07:17:47Z</time>
      </trkpt>
      <trkpt lat="43.5866" lon="6.25755">
        <ele>449.07</ele>
        <time>2016-10-07T07:18:02Z</time>
      </trkpt>
      <trkpt lat="43.5866" lon="6.25755">
        <ele>449.07</ele>
        <time>2016-10-07T07:18:06Z</time>
      </trkpt>
      <trkpt lat="43.58662" lon="6.25758">
        <ele>449.07</ele>
        <time>2016-10-07T07:18:09Z</time>
      </trkpt>
      <trkpt lat="43.58676" lon="6.25782">
        <ele>448.59</ele>
        <time>2016-10-07T07:18:24Z</time>
      </trkpt>
      <trkpt lat="43.58683" lon="6.25805">
        <ele>448.11</ele>
        <time>2016-10-07T07:18:36Z</time>
      </trkpt>
      <trkpt lat="43.58685" lon="6.25814">
        <ele>447.63</ele>
        <time>2016-10-07T07:18:41Z</time>
      </trkpt>
      <trkpt lat="43.58687" lon="6.25825">
        <ele>447.63</ele>
        <time>2016-10-07T07:18:46Z</time>
      </trkpt>
      <trkpt lat="43.58699" lon="6.25847">
        <ele>448.11</ele>
        <time>2016-10-07T07:19:01Z</time>
      </trkpt>
      <trkpt lat="43.58702" lon="6.25853">
        <ele>448.11</ele>
        <time>2016-10-07T07:19:05Z</time>
      </trkpt>
      <trkpt lat="43.58702" lon="6.25861">
        <ele>448.59</ele>
        <time>2016-10-07T07:19:09Z</time>
      </trkpt>
      <trkpt lat="43.58701" lon="6.25869">
        <ele>449.07</ele>
        <time>2016-10-07T07:19:13Z</time>
      </trkpt>
      <trkpt lat="43.587" lon="6.25879">
        <ele>449.55</ele>
        <time>2016-10-07T07:19:19Z</time>
      </trkpt>
      <trkpt lat="43.5871" lon="6.25895">
        <ele>450.03</ele>
        <time>2016-10-07T07:19:32Z</time>
      </trkpt>
      <trkpt lat="43.58732" lon="6.25907">
        <ele>450.03</ele>
        <time>2016-10-07T07:19:48Z</time>
      </trkpt>
      <trkpt lat="43.58742" lon="6.25926">
        <ele>449.55</ele>
        <time>2016-10-07T07:20:02Z</time>
      </trkpt>
      <trkpt lat="43.58758" lon="6.25943">
        <ele>448.59</ele>
        <time>2016-10-07T07:20:18Z</time>
      </trkpt>
      <trkpt lat="43.58759" lon="6.25944">
        <ele>448.59</ele>
        <time>2016-10-07T07:20:36Z</time>
      </trkpt>
      <trkpt lat="43.58762" lon="6.25946">
        <ele>448.59</ele>
        <time>2016-10-07T07:20:39Z</time>
      </trkpt>
      <trkpt lat="43.58771" lon="6.25952">
        <ele>448.11</ele>
        <time>2016-10-07T07:20:47Z</time>
      </trkpt>
      <trkpt lat="43.58777" lon="6.25953">
        <ele>448.11</ele>
        <time>2016-10-07T07:20:51Z</time>
      </trkpt>
      <trkpt lat="43.58787" lon="6.25964">
        <ele>448.11</ele>
        <time>2016-10-07T07:21:01Z</time>
      </trkpt>
      <trkpt lat="43.58789" lon="6.25965">
        <ele>448.11</ele>
        <time>2016-10-07T07:21:18Z</time>
      </trkpt>
      <trkpt lat="43.5879" lon="6.25967">
        <ele>447.63</ele>
        <time>2016-10-07T07:21:43Z</time>
      </trkpt>
      <trkpt lat="43.58796" lon="6.25969">
        <ele>448.11</ele>
        <time>2016-10-07T07:21:53Z</time>
      </trkpt>
      <trkpt lat="43.58802" lon="6.25973">
        <ele>448.59</ele>
        <time>2016-10-07T07:21:57Z</time>
      </trkpt>
      <trkpt lat="43.58821" lon="6.2597">
        <ele>448.59</ele>
        <time>2016-10-07T07:22:11Z</time>
      </trkpt>
      <trkpt lat="43.58829" lon="6.25973">
        <ele>449.55</ele>
        <time>2016-10-07T07:22:24Z</time>
      </trkpt>
      <trkpt lat="43.58831" lon="6.25976">
        <ele>449.55</ele>
        <time>2016-10-07T07:22:28Z</time>
      </trkpt>
      <trkpt lat="43.58848" lon="6.25985">
        <ele>449.55</ele>
        <time>2016-10-07T07:22:42Z</time>
      </trkpt>
      <trkpt lat="43.58861" lon="6.25982">
        <ele>450.52</ele>
        <time>2016-10-07T07:22:56Z</time>
      </trkpt>
      <trkpt lat="43.58863" lon="6.25983">
        <ele>450.52</ele>
        <time>2016-10-07T07:23:19Z</time>
      </trkpt>
      <trkpt lat="43.58866" lon="6.25981">
        <ele>450.52</ele>
        <time>2016-10-07T07:23:27Z</time>
      </trkpt>
      <trkpt lat="43.58871" lon="6.2598">
        <ele>451</ele>
        <time>2016-10-07T07:23:32Z</time>
      </trkpt>
      <trkpt lat="43.58884" lon="6.25999">
        <ele>451.96</ele>
        <time>2016-10-07T07:23:49Z</time>
      </trkpt>
      <trkpt lat="43.58896" lon="6.26014">
        <ele>452.44</ele>
        <time>2016-10-07T07:24:02Z</time>
      </trkpt>
      <trkpt lat="43.58915" lon="6.26016">
        <ele>453.88</ele>
        <time>2016-10-07T07:24:17Z</time>
      </trkpt>
      <trkpt lat="43.58923" lon="6.26025">
        <ele>454.36</ele>
        <time>2016-10-07T07:24:27Z</time>
      </trkpt>
      <trkpt lat="43.58934" lon="6.26037">
        <ele>455.32</ele>
        <time>2016-10-07T07:24:38Z</time>
      </trkpt>
      <trkpt lat="43.58938" lon="6.26038">
        <ele>455.8</ele>
        <time>2016-10-07T07:24:41Z</time>
      </trkpt>
      <trkpt lat="43.58943" lon="6.26043">
        <ele>456.28</ele>
        <time>2016-10-07T07:24:45Z</time>
      </trkpt>
      <trkpt lat="43.58954" lon="6.26068">
        <ele>457.24</ele>
        <time>2016-10-07T07:25:02Z</time>
      </trkpt>
      <trkpt lat="43.58963" lon="6.26093">
        <ele>458.21</ele>
        <time>2016-10-07T07:25:17Z</time>
      </trkpt>
      <trkpt lat="43.5897" lon="6.26103">
        <ele>458.69</ele>
        <time>2016-10-07T07:25:24Z</time>
      </trkpt>
      <trkpt lat="43.58975" lon="6.26105">
        <ele>458.69</ele>
        <time>2016-10-07T07:25:28Z</time>
      </trkpt>
      <trkpt lat="43.58982" lon="6.26112">
        <ele>458.69</ele>
        <time>2016-10-07T07:25:34Z</time>
      </trkpt>
      <trkpt lat="43.59004" lon="6.26126">
        <ele>458.21</ele>
        <time>2016-10-07T07:25:50Z</time>
      </trkpt>
      <trkpt lat="43.59011" lon="6.26132">
        <ele>457.72</ele>
        <time>2016-10-07T07:26:04Z</time>
      </trkpt>
      <trkpt lat="43.59011" lon="6.26136">
        <ele>457.72</ele>
        <time>2016-10-07T07:26:18Z</time>
      </trkpt>
      <trkpt lat="43.5901" lon="6.26135">
        <ele>457.72</ele>
        <time>2016-10-07T07:26:31Z</time>
      </trkpt>
      <trkpt lat="43.59009" lon="6.26137">
        <ele>457.72</ele>
        <time>2016-10-07T07:26:44Z</time>
      </trkpt>
      <trkpt lat="43.59009" lon="6.26137">
        <ele>457.72</ele>
        <time>2016-10-07T07:26:55Z</time>
      </trkpt>
      <trkpt lat="43.59008" lon="6.2614">
        <ele>457.24</ele>
        <time>2016-10-07T07:26:59Z</time>
      </trkpt>
      <trkpt lat="43.59006" lon="6.26143">
        <ele>457.72</ele>
        <time>2016-10-07T07:27:02Z</time>
      </trkpt>
      <trkpt lat="43.58996" lon="6.26164">
        <ele>457.24</ele>
        <time>2016-10-07T07:27:17Z</time>
      </trkpt>
      <trkpt lat="43.58986" lon="6.26183">
        <ele>456.28</ele>
        <time>2016-10-07T07:27:31Z</time>
      </trkpt>
      <trkpt lat="43.58975" lon="6.26201">
        <ele>454.84</ele>
        <time>2016-10-07T07:27:47Z</time>
      </trkpt>
      <trkpt lat="43.58966" lon="6.2622">
        <ele>453.4</ele>
        <time>2016-10-07T07:28:00Z</time>
      </trkpt>
      <trkpt lat="43.58958" lon="6.26241">
        <ele>452.44</ele>
        <time>2016-10-07T07:28:13Z</time>
      </trkpt>
      <trkpt lat="43.58957" lon="6.26245">
        <ele>452.44</ele>
        <time>2016-10-07T07:28:31Z</time>
      </trkpt>
      <trkpt lat="43.58955" lon="6.26246">
        <ele>452.44</ele>
        <time>2016-10-07T07:29:00Z</time>
      </trkpt>
      <trkpt lat="43.58952" lon="6.26248">
        <ele>451.96</ele>
        <time>2016-10-07T07:29:11Z</time>
      </trkpt>
      <trkpt lat="43.58952" lon="6.26248">
        <ele>451.96</ele>
        <time>2016-10-07T07:29:12Z</time>
      </trkpt>
      <trkpt lat="43.58956" lon="6.26247">
        <ele>452.44</ele>
        <time>2016-10-07T07:29:25Z</time>
      </trkpt>
      <trkpt lat="43.58956" lon="6.26246">
        <ele>455.32</ele>
        <time>2016-10-07T07:29:26Z</time>
      </trkpt>
      <trkpt lat="43.58956" lon="6.26246">
        <ele>449.07</ele>
        <time>2016-10-07T07:29:27Z</time>
      </trkpt>
      <trkpt lat="43.58956" lon="6.26246">
        <ele>455.8</ele>
        <time>2016-10-07T07:29:28Z</time>
      </trkpt>
      <trkpt lat="43.58956" lon="6.26246">
        <ele>452.92</ele>
        <time>2016-10-07T07:29:29Z</time>
      </trkpt>
      <trkpt lat="43.58956" lon="6.26246">
        <ele>453.4</ele>
        <time>2016-10-07T07:29:58Z</time>
      </trkpt>
      <trkpt lat="43.58956" lon="6.26246">
        <ele>451</ele>
        <time>2016-10-07T07:30:18Z</time>
      </trkpt>
      <trkpt lat="43.58955" lon="6.26246">
        <ele>452.92</ele>
        <time>2016-10-07T07:30:32Z</time>
      </trkpt>
      <trkpt lat="43.58956" lon="6.26246">
        <ele>452.92</ele>
        <time>2016-10-07T07:30:55Z</time>
      </trkpt>
      <trkpt lat="43.58958" lon="6.26248">
        <ele>452.92</ele>
        <time>2016-10-07T07:31:08Z</time>
      </trkpt>
      <trkpt lat="43.58959" lon="6.26251">
        <ele>452.44</ele>
        <time>2016-10-07T07:31:25Z</time>
      </trkpt>
      <trkpt lat="43.58956" lon="6.26247">
        <ele>452.44</ele>
        <time>2016-10-07T07:31:40Z</time>
      </trkpt>
      <trkpt lat="43.58955" lon="6.26247">
        <ele>452.92</ele>
        <time>2016-10-07T07:31:54Z</time>
      </trkpt>
      <trkpt lat="43.58955" lon="6.26246">
        <ele>452.92</ele>
        <time>2016-10-07T07:32:16Z</time>
      </trkpt>
      <trkpt lat="43.58955" lon="6.26246">
        <ele>452.92</ele>
        <time>2016-10-07T07:32:33Z</time>
      </trkpt>
      <trkpt lat="43.58955" lon="6.26247">
        <ele>453.4</ele>
        <time>2016-10-07T07:32:51Z</time>
      </trkpt>
      <trkpt lat="43.58955" lon="6.26247">
        <ele>450.03</ele>
        <time>2016-10-07T07:32:52Z</time>
      </trkpt>
      <trkpt lat="43.58955" lon="6.26247">
        <ele>455.8</ele>
        <time>2016-10-07T07:32:53Z</time>
      </trkpt>
      <trkpt lat="43.58955" lon="6.26247">
        <ele>452.44</ele>
        <time>2016-10-07T07:32:54Z</time>
      </trkpt>
      <trkpt lat="43.58955" lon="6.26247">
        <ele>455.8</ele>
        <time>2016-10-07T07:32:56Z</time>
      </trkpt>
      <trkpt lat="43.58954" lon="6.26248">
        <ele>453.4</ele>
        <time>2016-10-07T07:33:21Z</time>
      </trkpt>
      <trkpt lat="43.58954" lon="6.26249">
        <ele>452.92</ele>
        <time>2016-10-07T07:33:39Z</time>
      </trkpt>
      <trkpt lat="43.58954" lon="6.26249">
        <ele>452.92</ele>
        <time>2016-10-07T07:33:41Z</time>
      </trkpt>
      <trkpt lat="43.58954" lon="6.2625">
        <ele>453.4</ele>
        <time>2016-10-07T07:33:56Z</time>
      </trkpt>
      <trkpt lat="43.58955" lon="6.26249">
        <ele>452.92</ele>
        <time>2016-10-07T07:34:23Z</time>
      </trkpt>
      <trkpt lat="43.58955" lon="6.26249">
        <ele>452.44</ele>
        <time>2016-10-07T07:34:52Z</time>
      </trkpt>
      <trkpt lat="43.58955" lon="6.26249">
        <ele>455.8</ele>
        <time>2016-10-07T07:34:54Z</time>
      </trkpt>
      <trkpt lat="43.58955" lon="6.26249">
        <ele>452.44</ele>
        <time>2016-10-07T07:34:55Z</time>
      </trkpt>
      <trkpt lat="43.58955" lon="6.26249">
        <ele>453.4</ele>
        <time>2016-10-07T07:35:19Z</time>
      </trkpt>
      <trkpt lat="43.58954" lon="6.26248">
        <ele>452.92</ele>
        <time>2016-10-07T07:35:45Z</time>
      </trkpt>
      <trkpt lat="43.58954" lon="6.26249">
        <ele>454.36</ele>
        <time>2016-10-07T07:36:14Z</time>
      </trkpt>
      <trkpt lat="43.58954" lon="6.26249">
        <ele>449.07</ele>
        <time>2016-10-07T07:36:22Z</time>
      </trkpt>
      <trkpt lat="43.58954" lon="6.26249">
        <ele>457.24</ele>
        <time>2016-10-07T07:36:23Z</time>
      </trkpt>
      <trkpt lat="43.58954" lon="6.26249">
        <ele>453.4</ele>
        <time>2016-10-07T07:36:24Z</time>
      </trkpt>
      <trkpt lat="43.58954" lon="6.26249">
        <ele>453.4</ele>
        <time>2016-10-07T07:36:42Z</time>
      </trkpt>
      <trkpt lat="43.58958" lon="6.26251">
        <ele>453.4</ele>
        <time>2016-10-07T07:36:47Z</time>
      </trkpt>
      <trkpt lat="43.58971" lon="6.26258">
        <ele>454.36</ele>
        <time>2016-10-07T07:37:02Z</time>
      </trkpt>
      <trkpt lat="43.58975" lon="6.26258">
        <ele>454.36</ele>
        <time>2016-10-07T07:37:05Z</time>
      </trkpt>
      <trkpt lat="43.58984" lon="6.26257">
        <ele>454.84</ele>
        <time>2016-10-07T07:37:13Z</time>
      </trkpt>
      <trkpt lat="43.58997" lon="6.26277">
        <ele>455.32</ele>
        <time>2016-10-07T07:37:28Z</time>
      </trkpt>
      <trkpt lat="43.58997" lon="6.26278">
        <ele>454.84</ele>
        <time>2016-10-07T07:37:29Z</time>
      </trkpt>
      <trkpt lat="43.58997" lon="6.26295">
        <ele>454.84</ele>
        <time>2016-10-07T07:37:39Z</time>
      </trkpt>
      <trkpt lat="43.59006" lon="6.26321">
        <ele>454.36</ele>
        <time>2016-10-07T07:37:54Z</time>
      </trkpt>
      <trkpt lat="43.59022" lon="6.26335">
        <ele>454.84</ele>
        <time>2016-10-07T07:38:08Z</time>
      </trkpt>
      <trkpt lat="43.59029" lon="6.26339">
        <ele>455.32</ele>
        <time>2016-10-07T07:38:14Z</time>
      </trkpt>
      <trkpt lat="43.5904" lon="6.26339">
        <ele>455.32</ele>
        <time>2016-10-07T07:38:22Z</time>
      </trkpt>
      <trkpt lat="43.5905" lon="6.26354">
        <ele>455.32</ele>
        <time>2016-10-07T07:38:36Z</time>
      </trkpt>
      <trkpt lat="43.59041" lon="6.26365">
        <ele>455.32</ele>
        <time>2016-10-07T07:38:46Z</time>
      </trkpt>
      <trkpt lat="43.59042" lon="6.26376">
        <ele>455.8</ele>
        <time>2016-10-07T07:39:00Z</time>
      </trkpt>
      <trkpt lat="43.59041" lon="6.26377">
        <ele>455.32</ele>
        <time>2016-10-07T07:39:15Z</time>
      </trkpt>
      <trkpt lat="43.59042" lon="6.26381">
        <ele>455.8</ele>
        <time>2016-10-07T07:39:18Z</time>
      </trkpt>
      <trkpt lat="43.59043" lon="6.26387">
        <ele>455.8</ele>
        <time>2016-10-07T07:39:22Z</time>
      </trkpt>
      <trkpt lat="43.59042" lon="6.26392">
        <ele>455.8</ele>
        <time>2016-10-07T07:39:25Z</time>
      </trkpt>
      <trkpt lat="43.59042" lon="6.26422">
        <ele>457.24</ele>
        <time>2016-10-07T07:39:41Z</time>
      </trkpt>
      <trkpt lat="43.59045" lon="6.26443">
        <ele>458.21</ele>
        <time>2016-10-07T07:39:54Z</time>
      </trkpt>
      <trkpt lat="43.59046" lon="6.26449">
        <ele>458.69</ele>
        <time>2016-10-07T07:39:58Z</time>
      </trkpt>
      <trkpt lat="43.5906" lon="6.2646">
        <ele>460.13</ele>
        <time>2016-10-07T07:40:13Z</time>
      </trkpt>
      <trkpt lat="43.59067" lon="6.26472">
        <ele>460.61</ele>
        <time>2016-10-07T07:40:22Z</time>
      </trkpt>
      <trkpt lat="43.59067" lon="6.26476">
        <ele>461.09</ele>
        <time>2016-10-07T07:40:25Z</time>
      </trkpt>
      <trkpt lat="43.5907" lon="6.26485">
        <ele>461.09</ele>
        <time>2016-10-07T07:40:30Z</time>
      </trkpt>
      <trkpt lat="43.59072" lon="6.26489">
        <ele>461.57</ele>
        <time>2016-10-07T07:40:33Z</time>
      </trkpt>
      <trkpt lat="43.59077" lon="6.265">
        <ele>462.53</ele>
        <time>2016-10-07T07:40:42Z</time>
      </trkpt>
      <trkpt lat="43.59091" lon="6.26516">
        <ele>463.49</ele>
        <time>2016-10-07T07:40:56Z</time>
      </trkpt>
      <trkpt lat="43.59101" lon="6.26535">
        <ele>464.93</ele>
        <time>2016-10-07T07:41:10Z</time>
      </trkpt>
      <trkpt lat="43.59102" lon="6.2654">
        <ele>464.93</ele>
        <time>2016-10-07T07:41:13Z</time>
      </trkpt>
      <trkpt lat="43.5911" lon="6.26564">
        <ele>465.42</ele>
        <time>2016-10-07T07:41:27Z</time>
      </trkpt>
      <trkpt lat="43.5912" lon="6.26584">
        <ele>466.86</ele>
        <time>2016-10-07T07:41:42Z</time>
      </trkpt>
      <trkpt lat="43.5912" lon="6.26608">
        <ele>466.86</ele>
        <time>2016-10-07T07:41:56Z</time>
      </trkpt>
      <trkpt lat="43.59122" lon="6.26637">
        <ele>467.34</ele>
        <time>2016-10-07T07:42:11Z</time>
      </trkpt>
      <trkpt lat="43.59124" lon="6.26654">
        <ele>468.3</ele>
        <time>2016-10-07T07:42:21Z</time>
      </trkpt>
      <trkpt lat="43.59125" lon="6.26674">
        <ele>468.78</ele>
        <time>2016-10-07T07:42:33Z</time>
      </trkpt>
      <trkpt lat="43.59123" lon="6.26684">
        <ele>469.26</ele>
        <time>2016-10-07T07:42:39Z</time>
      </trkpt>
      <trkpt lat="43.59133" lon="6.267">
        <ele>471.66</ele>
        <time>2016-10-07T07:42:53Z</time>
      </trkpt>
      <trkpt lat="43.59143" lon="6.26711">
        <ele>472.14</ele>
        <time>2016-10-07T07:43:06Z</time>
      </trkpt>
      <trkpt lat="43.59151" lon="6.26721">
        <ele>473.59</ele>
        <time>2016-10-07T07:43:16Z</time>
      </trkpt>
      <trkpt lat="43.59151" lon="6.26746">
        <ele>474.55</ele>
        <time>2016-10-07T07:43:31Z</time>
      </trkpt>
      <trkpt lat="43.59156" lon="6.26756">
        <ele>475.99</ele>
        <time>2016-10-07T07:43:39Z</time>
      </trkpt>
      <trkpt lat="43.59161" lon="6.26763">
        <ele>477.43</ele>
        <time>2016-10-07T07:43:45Z</time>
      </trkpt>
      <trkpt lat="43.5917" lon="6.26789">
        <ele>479.84</ele>
        <time>2016-10-07T07:44:01Z</time>
      </trkpt>
      <trkpt lat="43.59172" lon="6.26796">
        <ele>480.32</ele>
        <time>2016-10-07T07:44:05Z</time>
      </trkpt>
      <trkpt lat="43.59174" lon="6.26806">
        <ele>481.28</ele>
        <time>2016-10-07T07:44:11Z</time>
      </trkpt>
      <trkpt lat="43.59188" lon="6.26835">
        <ele>482.24</ele>
        <time>2016-10-07T07:44:29Z</time>
      </trkpt>
      <trkpt lat="43.5919" lon="6.26841">
        <ele>482.24</ele>
        <time>2016-10-07T07:44:33Z</time>
      </trkpt>
      <trkpt lat="43.59208" lon="6.26851">
        <ele>481.28</ele>
        <time>2016-10-07T07:44:49Z</time>
      </trkpt>
      <trkpt lat="43.59226" lon="6.26857">
        <ele>480.8</ele>
        <time>2016-10-07T07:45:02Z</time>
      </trkpt>
      <trkpt lat="43.59241" lon="6.26873">
        <ele>480.32</ele>
        <time>2016-10-07T07:45:16Z</time>
      </trkpt>
      <trkpt lat="43.59242" lon="6.2688">
        <ele>480.8</ele>
        <time>2016-10-07T07:45:21Z</time>
      </trkpt>
      <trkpt lat="43.5924" lon="6.26883">
        <ele>481.28</ele>
        <time>2016-10-07T07:45:23Z</time>
      </trkpt>
      <trkpt lat="43.59237" lon="6.26888">
        <ele>482.24</ele>
        <time>2016-10-07T07:45:27Z</time>
      </trkpt>
      <trkpt lat="43.59236" lon="6.26892">
        <ele>482.72</ele>
        <time>2016-10-07T07:45:29Z</time>
      </trkpt>
      <trkpt lat="43.59229" lon="6.26909">
        <ele>483.2</ele>
        <time>2016-10-07T07:45:40Z</time>
      </trkpt>
      <trkpt lat="43.59215" lon="6.2693">
        <ele>483.2</ele>
        <time>2016-10-07T07:45:56Z</time>
      </trkpt>
      <trkpt lat="43.59201" lon="6.26939">
        <ele>484.16</ele>
        <time>2016-10-07T07:46:08Z</time>
      </trkpt>
      <trkpt lat="43.59187" lon="6.26952">
        <ele>486.08</ele>
        <time>2016-10-07T07:46:22Z</time>
      </trkpt>
      <trkpt lat="43.59183" lon="6.26958">
        <ele>486.56</ele>
        <time>2016-10-07T07:46:27Z</time>
      </trkpt>
      <trkpt lat="43.59176" lon="6.2698">
        <ele>488.49</ele>
        <time>2016-10-07T07:46:41Z</time>
      </trkpt>
      <trkpt lat="43.59174" lon="6.27002">
        <ele>490.41</ele>
        <time>2016-10-07T07:46:54Z</time>
      </trkpt>
      <trkpt lat="43.59177" lon="6.27022">
        <ele>491.85</ele>
        <time>2016-10-07T07:47:06Z</time>
      </trkpt>
      <trkpt lat="43.59179" lon="6.27044">
        <ele>493.29</ele>
        <time>2016-10-07T07:47:19Z</time>
      </trkpt>
      <trkpt lat="43.59181" lon="6.27054">
        <ele>493.77</ele>
        <time>2016-10-07T07:47:25Z</time>
      </trkpt>
      <trkpt lat="43.59183" lon="6.27061">
        <ele>494.26</ele>
        <time>2016-10-07T07:47:30Z</time>
      </trkpt>
      <trkpt lat="43.59184" lon="6.27063">
        <ele>494.74</ele>
        <time>2016-10-07T07:47:32Z</time>
      </trkpt>
      <trkpt lat="43.59186" lon="6.27069">
        <ele>495.7</ele>
        <time>2016-10-07T07:47:40Z</time>
      </trkpt>
      <trkpt lat="43.59192" lon="6.27077">
        <ele>497.14</ele>
        <time>2016-10-07T07:47:48Z</time>
      </trkpt>
      <trkpt lat="43.59202" lon="6.27096">
        <ele>499.54</ele>
        <time>2016-10-07T07:48:04Z</time>
      </trkpt>
      <trkpt lat="43.59212" lon="6.27113">
        <ele>500.5</ele>
        <time>2016-10-07T07:48:17Z</time>
      </trkpt>
      <trkpt lat="43.59221" lon="6.27119">
        <ele>501.46</ele>
        <time>2016-10-07T07:48:29Z</time>
      </trkpt>
      <trkpt lat="43.59221" lon="6.2712">
        <ele>502.43</ele>
        <time>2016-10-07T07:48:52Z</time>
      </trkpt>
      <trkpt lat="43.59221" lon="6.2712">
        <ele>498.1</ele>
        <time>2016-10-07T07:49:07Z</time>
      </trkpt>
      <trkpt lat="43.59221" lon="6.2712">
        <ele>504.83</ele>
        <time>2016-10-07T07:49:08Z</time>
      </trkpt>
      <trkpt lat="43.59221" lon="6.27119">
        <ele>501.95</ele>
        <time>2016-10-07T07:49:11Z</time>
      </trkpt>
      <trkpt lat="43.59222" lon="6.2712">
        <ele>501.95</ele>
        <time>2016-10-07T07:49:29Z</time>
      </trkpt>
      <trkpt lat="43.59228" lon="6.2712">
        <ele>502.91</ele>
        <time>2016-10-07T07:49:38Z</time>
      </trkpt>
      <trkpt lat="43.59239" lon="6.27126">
        <ele>505.31</ele>
        <time>2016-10-07T07:49:53Z</time>
      </trkpt>
      <trkpt lat="43.59244" lon="6.27133">
        <ele>506.75</ele>
        <time>2016-10-07T07:50:02Z</time>
      </trkpt>
      <trkpt lat="43.59257" lon="6.27152">
        <ele>509.64</ele>
        <time>2016-10-07T07:50:18Z</time>
      </trkpt>
      <trkpt lat="43.59273" lon="6.27163">
        <ele>511.56</ele>
        <time>2016-10-07T07:50:33Z</time>
      </trkpt>
      <trkpt lat="43.59281" lon="6.27172">
        <ele>512.52</ele>
        <time>2016-10-07T07:50:45Z</time>
      </trkpt>
      <trkpt lat="43.59281" lon="6.27177">
        <ele>511.56</ele>
        <time>2016-10-07T07:50:57Z</time>
      </trkpt>
      <trkpt lat="43.59281" lon="6.27176">
        <ele>511.56</ele>
        <time>2016-10-07T07:51:17Z</time>
      </trkpt>
      <trkpt lat="43.59281" lon="6.27175">
        <ele>511.56</ele>
        <time>2016-10-07T07:51:34Z</time>
      </trkpt>
      <trkpt lat="43.59282" lon="6.27179">
        <ele>511.08</ele>
        <time>2016-10-07T07:51:46Z</time>
      </trkpt>
      <trkpt lat="43.59283" lon="6.27179">
        <ele>511.08</ele>
        <time>2016-10-07T07:52:03Z</time>
      </trkpt>
      <trkpt lat="43.59283" lon="6.2718">
        <ele>511.56</ele>
        <time>2016-10-07T07:52:26Z</time>
      </trkpt>
      <trkpt lat="43.59283" lon="6.2718">
        <ele>511.08</ele>
        <time>2016-10-07T07:52:45Z</time>
      </trkpt>
      <trkpt lat="43.59284" lon="6.2718">
        <ele>510.6</ele>
        <time>2016-10-07T07:53:15Z</time>
      </trkpt>
      <trkpt lat="43.59283" lon="6.27179">
        <ele>511.08</ele>
        <time>2016-10-07T07:53:48Z</time>
      </trkpt>
      <trkpt lat="43.59283" lon="6.27179">
        <ele>510.6</ele>
        <time>2016-10-07T07:54:13Z</time>
      </trkpt>
      <trkpt lat="43.59283" lon="6.27178">
        <ele>511.08</ele>
        <time>2016-10-07T07:54:35Z</time>
      </trkpt>
      <trkpt lat="43.59291" lon="6.2718">
        <ele>509.16</ele>
        <time>2016-10-07T07:54:48Z</time>
      </trkpt>
      <trkpt lat="43.59293" lon="6.27181">
        <ele>509.16</ele>
        <time>2016-10-07T07:54:51Z</time>
      </trkpt>
      <trkpt lat="43.59296" lon="6.27181">
        <ele>509.64</ele>
        <time>2016-10-07T07:54:54Z</time>
      </trkpt>
      <trkpt lat="43.59305" lon="6.27185">
        <ele>508.19</ele>
        <time>2016-10-07T07:55:03Z</time>
      </trkpt>
      <trkpt lat="43.5932" lon="6.27191">
        <ele>507.23</ele>
        <time>2016-10-07T07:55:16Z</time>
      </trkpt>
      <trkpt lat="43.59336" lon="6.27194">
        <ele>506.75</ele>
        <time>2016-10-07T07:55:30Z</time>
      </trkpt>
      <trkpt lat="43.5934" lon="6.27196">
        <ele>506.75</ele>
        <time>2016-10-07T07:55:33Z</time>
      </trkpt>
      <trkpt lat="43.59349" lon="6.272">
        <ele>506.75</ele>
        <time>2016-10-07T07:55:38Z</time>
      </trkpt>
      <trkpt lat="43.59363" lon="6.27213">
        <ele>506.27</ele>
        <time>2016-10-07T07:55:51Z</time>
      </trkpt>
      <trkpt lat="43.59369" lon="6.27219">
        <ele>506.27</ele>
        <time>2016-10-07T07:55:56Z</time>
      </trkpt>
      <trkpt lat="43.59375" lon="6.27223">
        <ele>505.79</ele>
        <time>2016-10-07T07:56:01Z</time>
      </trkpt>
      <trkpt lat="43.59379" lon="6.27226">
        <ele>505.31</ele>
        <time>2016-10-07T07:56:05Z</time>
      </trkpt>
      <trkpt lat="43.59394" lon="6.27244">
        <ele>503.87</ele>
        <time>2016-10-07T07:56:19Z</time>
      </trkpt>
      <trkpt lat="43.59399" lon="6.2725">
        <ele>503.87</ele>
        <time>2016-10-07T07:56:24Z</time>
      </trkpt>
      <trkpt lat="43.59401" lon="6.27255">
        <ele>503.39</ele>
        <time>2016-10-07T07:56:27Z</time>
      </trkpt>
      <trkpt lat="43.59408" lon="6.27271">
        <ele>501.46</ele>
        <time>2016-10-07T07:56:40Z</time>
      </trkpt>
      <trkpt lat="43.59409" lon="6.27273">
        <ele>501.46</ele>
        <time>2016-10-07T07:56:55Z</time>
      </trkpt>
      <trkpt lat="43.59409" lon="6.27274">
        <ele>501.46</ele>
        <time>2016-10-07T07:57:11Z</time>
      </trkpt>
      <trkpt lat="43.59412" lon="6.2727">
        <ele>501.46</ele>
        <time>2016-10-07T07:57:30Z</time>
      </trkpt>
      <trkpt lat="43.59417" lon="6.27267">
        <ele>502.43</ele>
        <time>2016-10-07T07:57:44Z</time>
      </trkpt>
      <trkpt lat="43.59419" lon="6.27264">
        <ele>503.39</ele>
        <time>2016-10-07T07:57:57Z</time>
      </trkpt>
      <trkpt lat="43.59419" lon="6.27265">
        <ele>502.91</ele>
        <time>2016-10-07T07:58:03Z</time>
      </trkpt>
      <trkpt lat="43.59412" lon="6.27266">
        <ele>501.46</ele>
        <time>2016-10-07T07:58:18Z</time>
      </trkpt>
      <trkpt lat="43.5941" lon="6.27267">
        <ele>501.46</ele>
        <time>2016-10-07T07:58:31Z</time>
      </trkpt>
      <trkpt lat="43.59415" lon="6.27267">
        <ele>501.95</ele>
        <time>2016-10-07T07:58:41Z</time>
      </trkpt>
      <trkpt lat="43.59418" lon="6.27266">
        <ele>502.43</ele>
        <time>2016-10-07T07:58:44Z</time>
      </trkpt>
      <trkpt lat="43.59419" lon="6.27265">
        <ele>502.43</ele>
        <time>2016-10-07T07:58:46Z</time>
      </trkpt>
      <trkpt lat="43.59425" lon="6.2726">
        <ele>503.39</ele>
        <time>2016-10-07T07:58:52Z</time>
      </trkpt>
      <trkpt lat="43.59436" lon="6.27247">
        <ele>504.83</ele>
        <time>2016-10-07T07:59:05Z</time>
      </trkpt>
      <trkpt lat="43.59447" lon="6.27236">
        <ele>505.79</ele>
        <time>2016-10-07T07:59:18Z</time>
      </trkpt>
      <trkpt lat="43.59455" lon="6.2723">
        <ele>506.27</ele>
        <time>2016-10-07T07:59:26Z</time>
      </trkpt>
      <trkpt lat="43.59463" lon="6.27232">
        <ele>505.31</ele>
        <time>2016-10-07T07:59:39Z</time>
      </trkpt>
      <trkpt lat="43.59465" lon="6.27233">
        <ele>504.83</ele>
        <time>2016-10-07T07:59:41Z</time>
      </trkpt>
      <trkpt lat="43.59467" lon="6.27234">
        <ele>505.31</ele>
        <time>2016-10-07T07:59:52Z</time>
      </trkpt>
      <trkpt lat="43.59468" lon="6.27233">
        <ele>505.31</ele>
        <time>2016-10-07T08:00:06Z</time>
      </trkpt>
      <trkpt lat="43.5947" lon="6.27233">
        <ele>505.31</ele>
        <time>2016-10-07T08:00:08Z</time>
      </trkpt>
      <trkpt lat="43.59475" lon="6.27231">
        <ele>505.31</ele>
        <time>2016-10-07T08:00:13Z</time>
      </trkpt>
      <trkpt lat="43.59481" lon="6.27236">
        <ele>505.31</ele>
        <time>2016-10-07T08:00:26Z</time>
      </trkpt>
      <trkpt lat="43.59482" lon="6.27236">
        <ele>505.31</ele>
        <time>2016-10-07T08:00:29Z</time>
      </trkpt>
      <trkpt lat="43.59498" lon="6.2725">
        <ele>505.79</ele>
        <time>2016-10-07T08:00:45Z</time>
      </trkpt>
      <trkpt lat="43.59517" lon="6.27265">
        <ele>506.27</ele>
        <time>2016-10-07T08:01:01Z</time>
      </trkpt>
      <trkpt lat="43.59529" lon="6.27273">
        <ele>506.75</ele>
        <time>2016-10-07T08:01:12Z</time>
      </trkpt>
      <trkpt lat="43.59549" lon="6.2728">
        <ele>508.19</ele>
        <time>2016-10-07T08:01:26Z</time>
      </trkpt>
      <trkpt lat="43.59559" lon="6.27283">
        <ele>509.16</ele>
        <time>2016-10-07T08:01:36Z</time>
      </trkpt>
      <trkpt lat="43.59562" lon="6.27308">
        <ele>508.67</ele>
        <time>2016-10-07T08:01:50Z</time>
      </trkpt>
      <trkpt lat="43.59564" lon="6.27312">
        <ele>508.67</ele>
        <time>2016-10-07T08:01:53Z</time>
      </trkpt>
      <trkpt lat="43.59569" lon="6.27331">
        <ele>509.64</ele>
        <time>2016-10-07T08:02:09Z</time>
      </trkpt>
      <trkpt lat="43.59567" lon="6.2734">
        <ele>509.64</ele>
        <time>2016-10-07T08:02:15Z</time>
      </trkpt>
      <trkpt lat="43.5956" lon="6.27365">
        <ele>510.6</ele>
        <time>2016-10-07T08:02:31Z</time>
      </trkpt>
      <trkpt lat="43.59553" lon="6.27385">
        <ele>511.56</ele>
        <time>2016-10-07T08:02:44Z</time>
      </trkpt>
      <trkpt lat="43.59549" lon="6.27391">
        <ele>511.56</ele>
        <time>2016-10-07T08:02:50Z</time>
      </trkpt>
      <trkpt lat="43.59544" lon="6.27399">
        <ele>512.52</ele>
        <time>2016-10-07T08:02:56Z</time>
      </trkpt>
      <trkpt lat="43.59541" lon="6.27403">
        <ele>513</ele>
        <time>2016-10-07T08:02:59Z</time>
      </trkpt>
      <trkpt lat="43.59537" lon="6.27409">
        <ele>513</ele>
        <time>2016-10-07T08:03:04Z</time>
      </trkpt>
      <trkpt lat="43.59528" lon="6.27416">
        <ele>513.48</ele>
        <time>2016-10-07T08:03:11Z</time>
      </trkpt>
      <trkpt lat="43.59519" lon="6.2742">
        <ele>513.96</ele>
        <time>2016-10-07T08:03:20Z</time>
      </trkpt>
      <trkpt lat="43.595" lon="6.2743">
        <ele>513.96</ele>
        <time>2016-10-07T08:03:34Z</time>
      </trkpt>
      <trkpt lat="43.5949" lon="6.27438">
        <ele>513</ele>
        <time>2016-10-07T08:03:47Z</time>
      </trkpt>
      <trkpt lat="43.5949" lon="6.27438">
        <ele>513</ele>
        <time>2016-10-07T08:03:49Z</time>
      </trkpt>
      <trkpt lat="43.59474" lon="6.27444">
        <ele>512.04</ele>
        <time>2016-10-07T08:04:02Z</time>
      </trkpt>
      <trkpt lat="43.59465" lon="6.2745">
        <ele>512.04</ele>
        <time>2016-10-07T08:04:11Z</time>
      </trkpt>
      <trkpt lat="43.59461" lon="6.27454">
        <ele>512.04</ele>
        <time>2016-10-07T08:04:15Z</time>
      </trkpt>
      <trkpt lat="43.59444" lon="6.27464">
        <ele>511.56</ele>
        <time>2016-10-07T08:04:30Z</time>
      </trkpt>
      <trkpt lat="43.59432" lon="6.2747">
        <ele>511.08</ele>
        <time>2016-10-07T08:04:41Z</time>
      </trkpt>
      <trkpt lat="43.5943" lon="6.27472">
        <ele>511.08</ele>
        <time>2016-10-07T08:04:43Z</time>
      </trkpt>
      <trkpt lat="43.59415" lon="6.27483">
        <ele>509.64</ele>
        <time>2016-10-07T08:04:56Z</time>
      </trkpt>
      <trkpt lat="43.59401" lon="6.2749">
        <ele>509.16</ele>
        <time>2016-10-07T08:05:09Z</time>
      </trkpt>
      <trkpt lat="43.59399" lon="6.27491">
        <ele>509.16</ele>
        <time>2016-10-07T08:05:17Z</time>
      </trkpt>
      <trkpt lat="43.59403" lon="6.27487">
        <ele>509.16</ele>
        <time>2016-10-07T08:05:28Z</time>
      </trkpt>
      <trkpt lat="43.59402" lon="6.27487">
        <ele>509.16</ele>
        <time>2016-10-07T08:05:49Z</time>
      </trkpt>
      <trkpt lat="43.59401" lon="6.27487">
        <ele>509.16</ele>
        <time>2016-10-07T08:06:03Z</time>
      </trkpt>
      <trkpt lat="43.59401" lon="6.27486">
        <ele>509.16</ele>
        <time>2016-10-07T08:06:18Z</time>
      </trkpt>
      <trkpt lat="43.59402" lon="6.27477">
        <ele>508.67</ele>
        <time>2016-10-07T08:06:33Z</time>
      </trkpt>
      <trkpt lat="43.59398" lon="6.27483">
        <ele>509.16</ele>
        <time>2016-10-07T08:06:47Z</time>
      </trkpt>
      <trkpt lat="43.59398" lon="6.27489">
        <ele>509.16</ele>
        <time>2016-10-07T08:06:52Z</time>
      </trkpt>
      <trkpt lat="43.59396" lon="6.27491">
        <ele>509.16</ele>
        <time>2016-10-07T08:06:55Z</time>
      </trkpt>
      <trkpt lat="43.59384" lon="6.27493">
        <ele>509.16</ele>
        <time>2016-10-07T08:07:06Z</time>
      </trkpt>
      <trkpt lat="43.59381" lon="6.27494">
        <ele>509.16</ele>
        <time>2016-10-07T08:07:08Z</time>
      </trkpt>
      <trkpt lat="43.59364" lon="6.27496">
        <ele>509.16</ele>
        <time>2016-10-07T08:07:23Z</time>
      </trkpt>
      <trkpt lat="43.59345" lon="6.27494">
        <ele>510.12</ele>
        <time>2016-10-07T08:07:40Z</time>
      </trkpt>
      <trkpt lat="43.5933" lon="6.27491">
        <ele>511.08</ele>
        <time>2016-10-07T08:07:52Z</time>
      </trkpt>
      <trkpt lat="43.59328" lon="6.27489">
        <ele>511.08</ele>
        <time>2016-10-07T08:07:54Z</time>
      </trkpt>
      <trkpt lat="43.59312" lon="6.27476">
        <ele>512.04</ele>
        <time>2016-10-07T08:08:10Z</time>
      </trkpt>
      <trkpt lat="43.59308" lon="6.27474">
        <ele>512.04</ele>
        <time>2016-10-07T08:08:15Z</time>
      </trkpt>
      <trkpt lat="43.59299" lon="6.27472">
        <ele>512.52</ele>
        <time>2016-10-07T08:08:22Z</time>
      </trkpt>
      <trkpt lat="43.5928" lon="6.27466">
        <ele>513.48</ele>
        <time>2016-10-07T08:08:38Z</time>
      </trkpt>
      <trkpt lat="43.5927" lon="6.27454">
        <ele>513.48</ele>
        <time>2016-10-07T08:08:49Z</time>
      </trkpt>
      <trkpt lat="43.59257" lon="6.27433">
        <ele>512.04</ele>
        <time>2016-10-07T08:09:04Z</time>
      </trkpt>
      <trkpt lat="43.59254" lon="6.27431">
        <ele>512.04</ele>
        <time>2016-10-07T08:09:07Z</time>
      </trkpt>
      <trkpt lat="43.59245" lon="6.27421">
        <ele>510.6</ele>
        <time>2016-10-07T08:09:17Z</time>
      </trkpt>
      <trkpt lat="43.59232" lon="6.27418">
        <ele>509.16</ele>
        <time>2016-10-07T08:09:30Z</time>
      </trkpt>
      <trkpt lat="43.59226" lon="6.27419">
        <ele>508.67</ele>
        <time>2016-10-07T08:09:35Z</time>
      </trkpt>
      <trkpt lat="43.59224" lon="6.27419">
        <ele>508.67</ele>
        <time>2016-10-07T08:09:37Z</time>
      </trkpt>
      <trkpt lat="43.59215" lon="6.27419">
        <ele>508.19</ele>
        <time>2016-10-07T08:09:44Z</time>
      </trkpt>
      <trkpt lat="43.59208" lon="6.27425">
        <ele>508.67</ele>
        <time>2016-10-07T08:09:51Z</time>
      </trkpt>
      <trkpt lat="43.59193" lon="6.27432">
        <ele>508.67</ele>
        <time>2016-10-07T08:10:04Z</time>
      </trkpt>
      <trkpt lat="43.59189" lon="6.27434">
        <ele>508.19</ele>
        <time>2016-10-07T08:10:08Z</time>
      </trkpt>
      <trkpt lat="43.59186" lon="6.27437">
        <ele>508.19</ele>
        <time>2016-10-07T08:10:11Z</time>
      </trkpt>
      <trkpt lat="43.59178" lon="6.27441">
        <ele>507.71</ele>
        <time>2016-10-07T08:10:24Z</time>
      </trkpt>
      <trkpt lat="43.59175" lon="6.27445">
        <ele>507.71</ele>
        <time>2016-10-07T08:10:36Z</time>
      </trkpt>
      <trkpt lat="43.59167" lon="6.27448">
        <ele>507.23</ele>
        <time>2016-10-07T08:10:44Z</time>
      </trkpt>
      <trkpt lat="43.59158" lon="6.27449">
        <ele>506.27</ele>
        <time>2016-10-07T08:10:53Z</time>
      </trkpt>
      <trkpt lat="43.59153" lon="6.27453">
        <ele>505.79</ele>
        <time>2016-10-07T08:10:58Z</time>
      </trkpt>
      <trkpt lat="43.59148" lon="6.27457">
        <ele>505.31</ele>
        <time>2016-10-07T08:11:03Z</time>
      </trkpt>
      <trkpt lat="43.59144" lon="6.27459">
        <ele>504.35</ele>
        <time>2016-10-07T08:11:07Z</time>
      </trkpt>
      <trkpt lat="43.59135" lon="6.27466">
        <ele>502.43</ele>
        <time>2016-10-07T08:11:20Z</time>
      </trkpt>
      <trkpt lat="43.59122" lon="6.27478">
        <ele>500.98</ele>
        <time>2016-10-07T08:11:33Z</time>
      </trkpt>
      <trkpt lat="43.59116" lon="6.27479">
        <ele>499.54</ele>
        <time>2016-10-07T08:11:40Z</time>
      </trkpt>
      <trkpt lat="43.59105" lon="6.27485">
        <ele>497.62</ele>
        <time>2016-10-07T08:11:54Z</time>
      </trkpt>
      <trkpt lat="43.59104" lon="6.27485">
        <ele>497.14</ele>
        <time>2016-10-07T08:11:55Z</time>
      </trkpt>
      <trkpt lat="43.59092" lon="6.27494">
        <ele>494.74</ele>
        <time>2016-10-07T08:12:09Z</time>
      </trkpt>
      <trkpt lat="43.59086" lon="6.27501">
        <ele>492.33</ele>
        <time>2016-10-07T08:12:24Z</time>
      </trkpt>
      <trkpt lat="43.5909" lon="6.27499">
        <ele>493.29</ele>
        <time>2016-10-07T08:12:34Z</time>
      </trkpt>
      <trkpt lat="43.59089" lon="6.27498">
        <ele>493.77</ele>
        <time>2016-10-07T08:13:01Z</time>
      </trkpt>
      <trkpt lat="43.59089" lon="6.27498">
        <ele>491.37</ele>
        <time>2016-10-07T08:13:07Z</time>
      </trkpt>
      <trkpt lat="43.59089" lon="6.27498">
        <ele>498.1</ele>
        <time>2016-10-07T08:13:08Z</time>
      </trkpt>
      <trkpt lat="43.59089" lon="6.27498">
        <ele>493.77</ele>
        <time>2016-10-07T08:13:09Z</time>
      </trkpt>
      <trkpt lat="43.59089" lon="6.27499">
        <ele>493.77</ele>
        <time>2016-10-07T08:13:29Z</time>
      </trkpt>
      <trkpt lat="43.59089" lon="6.27498">
        <ele>493.29</ele>
        <time>2016-10-07T08:13:45Z</time>
      </trkpt>
      <trkpt lat="43.59089" lon="6.27498">
        <ele>493.77</ele>
        <time>2016-10-07T08:14:14Z</time>
      </trkpt>
      <trkpt lat="43.59089" lon="6.27498">
        <ele>493.77</ele>
        <time>2016-10-07T08:14:31Z</time>
      </trkpt>
      <trkpt lat="43.5909" lon="6.27499">
        <ele>493.29</ele>
        <time>2016-10-07T08:14:56Z</time>
      </trkpt>
      <trkpt lat="43.5909" lon="6.27499">
        <ele>493.77</ele>
        <time>2016-10-07T08:15:09Z</time>
      </trkpt>
      <trkpt lat="43.5909" lon="6.27499">
        <ele>493.77</ele>
        <time>2016-10-07T08:15:25Z</time>
      </trkpt>
      <trkpt lat="43.5909" lon="6.27498">
        <ele>493.77</ele>
        <time>2016-10-07T08:15:42Z</time>
      </trkpt>
      <trkpt lat="43.5909" lon="6.27498">
        <ele>493.77</ele>
        <time>2016-10-07T08:16:06Z</time>
      </trkpt>
      <trkpt lat="43.59088" lon="6.275">
        <ele>492.81</ele>
        <time>2016-10-07T08:16:27Z</time>
      </trkpt>
      <trkpt lat="43.59082" lon="6.27506">
        <ele>490.89</ele>
        <time>2016-10-07T08:16:39Z</time>
      </trkpt>
      <trkpt lat="43.59078" lon="6.27516">
        <ele>488.49</ele>
        <time>2016-10-07T08:16:51Z</time>
      </trkpt>
      <trkpt lat="43.59067" lon="6.27526">
        <ele>485.12</ele>
        <time>2016-10-07T08:17:05Z</time>
      </trkpt>
      <trkpt lat="43.59065" lon="6.27527">
        <ele>484.64</ele>
        <time>2016-10-07T08:17:07Z</time>
      </trkpt>
      <trkpt lat="43.59059" lon="6.27533">
        <ele>482.72</ele>
        <time>2016-10-07T08:17:18Z</time>
      </trkpt>
      <trkpt lat="43.59055" lon="6.27534">
        <ele>480.8</ele>
        <time>2016-10-07T08:17:25Z</time>
      </trkpt>
      <trkpt lat="43.59052" lon="6.27538">
        <ele>479.35</ele>
        <time>2016-10-07T08:17:33Z</time>
      </trkpt>
      <trkpt lat="43.59048" lon="6.27545">
        <ele>478.87</ele>
        <time>2016-10-07T08:17:40Z</time>
      </trkpt>
      <trkpt lat="43.59047" lon="6.27547">
        <ele>478.39</ele>
        <time>2016-10-07T08:17:42Z</time>
      </trkpt>
      <trkpt lat="43.59041" lon="6.27563">
        <ele>477.91</ele>
        <time>2016-10-07T08:17:55Z</time>
      </trkpt>
      <trkpt lat="43.59039" lon="6.27566">
        <ele>477.91</ele>
        <time>2016-10-07T08:17:57Z</time>
      </trkpt>
      <trkpt lat="43.59037" lon="6.27569">
        <ele>477.43</ele>
        <time>2016-10-07T08:17:59Z</time>
      </trkpt>
      <trkpt lat="43.59036" lon="6.27573">
        <ele>477.43</ele>
        <time>2016-10-07T08:18:02Z</time>
      </trkpt>
      <trkpt lat="43.59028" lon="6.27591">
        <ele>476.95</ele>
        <time>2016-10-07T08:18:15Z</time>
      </trkpt>
      <trkpt lat="43.5902" lon="6.27597">
        <ele>476.47</ele>
        <time>2016-10-07T08:18:22Z</time>
      </trkpt>
      <trkpt lat="43.59015" lon="6.27599">
        <ele>475.99</ele>
        <time>2016-10-07T08:18:36Z</time>
      </trkpt>
      <trkpt lat="43.59015" lon="6.276">
        <ele>475.99</ele>
        <time>2016-10-07T08:18:38Z</time>
      </trkpt>
      <trkpt lat="43.59013" lon="6.27598">
        <ele>475.99</ele>
        <time>2016-10-07T08:18:40Z</time>
      </trkpt>
      <trkpt lat="43.59011" lon="6.27598">
        <ele>475.99</ele>
        <time>2016-10-07T08:18:43Z</time>
      </trkpt>
      <trkpt lat="43.59009" lon="6.27598">
        <ele>475.99</ele>
        <time>2016-10-07T08:18:45Z</time>
      </trkpt>
      <trkpt lat="43.58995" lon="6.27597">
        <ele>475.51</ele>
        <time>2016-10-07T08:18:57Z</time>
      </trkpt>
      <trkpt lat="43.58974" lon="6.27598">
        <ele>475.03</ele>
        <time>2016-10-07T08:19:13Z</time>
      </trkpt>
      <trkpt lat="43.58965" lon="6.27602">
        <ele>475.03</ele>
        <time>2016-10-07T08:19:20Z</time>
      </trkpt>
      <trkpt lat="43.58952" lon="6.27608">
        <ele>475.03</ele>
        <time>2016-10-07T08:19:32Z</time>
      </trkpt>
      <trkpt lat="43.58949" lon="6.27611">
        <ele>474.55</ele>
        <time>2016-10-07T08:19:35Z</time>
      </trkpt>
      <trkpt lat="43.58945" lon="6.27617">
        <ele>474.07</ele>
        <time>2016-10-07T08:19:41Z</time>
      </trkpt>
      <trkpt lat="43.5894" lon="6.27629">
        <ele>473.59</ele>
        <time>2016-10-07T08:19:49Z</time>
      </trkpt>
      <trkpt lat="43.58929" lon="6.27657">
        <ele>473.11</ele>
        <time>2016-10-07T08:20:06Z</time>
      </trkpt>
      <trkpt lat="43.58917" lon="6.27672">
        <ele>471.66</ele>
        <time>2016-10-07T08:20:19Z</time>
      </trkpt>
      <trkpt lat="43.58916" lon="6.27674">
        <ele>471.66</ele>
        <time>2016-10-07T08:20:20Z</time>
      </trkpt>
      <trkpt lat="43.58901" lon="6.27675">
        <ele>470.7</ele>
        <time>2016-10-07T08:20:32Z</time>
      </trkpt>
      <trkpt lat="43.58897" lon="6.27677">
        <ele>470.7</ele>
        <time>2016-10-07T08:20:35Z</time>
      </trkpt>
      <trkpt lat="43.58889" lon="6.27682">
        <ele>468.78</ele>
        <time>2016-10-07T08:20:48Z</time>
      </trkpt>
      <trkpt lat="43.58883" lon="6.27682">
        <ele>467.34</ele>
        <time>2016-10-07T08:21:01Z</time>
      </trkpt>
      <trkpt lat="43.5888" lon="6.27682">
        <ele>466.86</ele>
        <time>2016-10-07T08:21:13Z</time>
      </trkpt>
      <trkpt lat="43.58881" lon="6.27684">
        <ele>466.86</ele>
        <time>2016-10-07T08:21:28Z</time>
      </trkpt>
      <trkpt lat="43.58879" lon="6.27685">
        <ele>466.86</ele>
        <time>2016-10-07T08:21:37Z</time>
      </trkpt>
      <trkpt lat="43.58876" lon="6.27691">
        <ele>467.34</ele>
        <time>2016-10-07T08:21:41Z</time>
      </trkpt>
      <trkpt lat="43.58876" lon="6.27697">
        <ele>467.82</ele>
        <time>2016-10-07T08:21:49Z</time>
      </trkpt>
      <trkpt lat="43.58877" lon="6.27703">
        <ele>467.34</ele>
        <time>2016-10-07T08:21:53Z</time>
      </trkpt>
      <trkpt lat="43.5887" lon="6.27727">
        <ele>465.9</ele>
        <time>2016-10-07T08:22:08Z</time>
      </trkpt>
      <trkpt lat="43.58867" lon="6.27731">
        <ele>465.42</ele>
        <time>2016-10-07T08:22:11Z</time>
      </trkpt>
      <trkpt lat="43.58859" lon="6.27741">
        <ele>464.93</ele>
        <time>2016-10-07T08:22:19Z</time>
      </trkpt>
      <trkpt lat="43.58847" lon="6.27752">
        <ele>464.93</ele>
        <time>2016-10-07T08:22:29Z</time>
      </trkpt>
      <trkpt lat="43.58842" lon="6.27756">
        <ele>463.49</ele>
        <time>2016-10-07T08:22:33Z</time>
      </trkpt>
      <trkpt lat="43.58827" lon="6.27769">
        <ele>462.53</ele>
        <time>2016-10-07T08:22:46Z</time>
      </trkpt>
      <trkpt lat="43.58818" lon="6.27776">
        <ele>462.53</ele>
        <time>2016-10-07T08:22:54Z</time>
      </trkpt>
      <trkpt lat="43.58813" lon="6.27784">
        <ele>462.53</ele>
        <time>2016-10-07T08:23:00Z</time>
      </trkpt>
      <trkpt lat="43.58798" lon="6.27791">
        <ele>460.61</ele>
        <time>2016-10-07T08:23:14Z</time>
      </trkpt>
      <trkpt lat="43.58794" lon="6.27798">
        <ele>460.13</ele>
        <time>2016-10-07T08:23:28Z</time>
      </trkpt>
      <trkpt lat="43.58792" lon="6.27803">
        <ele>459.65</ele>
        <time>2016-10-07T08:23:31Z</time>
      </trkpt>
      <trkpt lat="43.58787" lon="6.27813">
        <ele>458.21</ele>
        <time>2016-10-07T08:23:46Z</time>
      </trkpt>
      <trkpt lat="43.58779" lon="6.27818">
        <ele>456.76</ele>
        <time>2016-10-07T08:23:56Z</time>
      </trkpt>
      <trkpt lat="43.58774" lon="6.27819">
        <ele>454.84</ele>
        <time>2016-10-07T08:24:12Z</time>
      </trkpt>
      <trkpt lat="43.58772" lon="6.27819">
        <ele>452.44</ele>
        <time>2016-10-07T08:24:28Z</time>
      </trkpt>
      <trkpt lat="43.58771" lon="6.27833">
        <ele>450.03</ele>
        <time>2016-10-07T08:24:40Z</time>
      </trkpt>
      <trkpt lat="43.5877" lon="6.27843">
        <ele>449.55</ele>
        <time>2016-10-07T08:24:56Z</time>
      </trkpt>
      <trkpt lat="43.5877" lon="6.27843">
        <ele>449.55</ele>
        <time>2016-10-07T08:25:23Z</time>
      </trkpt>
      <trkpt lat="43.58772" lon="6.27843">
        <ele>450.03</ele>
        <time>2016-10-07T08:25:41Z</time>
      </trkpt>
      <trkpt lat="43.58768" lon="6.27844">
        <ele>447.15</ele>
        <time>2016-10-07T08:25:57Z</time>
      </trkpt>
      <trkpt lat="43.5876" lon="6.27852">
        <ele>447.15</ele>
        <time>2016-10-07T08:26:17Z</time>
      </trkpt>
      <trkpt lat="43.58758" lon="6.27854">
        <ele>447.15</ele>
        <time>2016-10-07T08:26:30Z</time>
      </trkpt>
      <trkpt lat="43.58757" lon="6.27854">
        <ele>446.19</ele>
        <time>2016-10-07T08:26:52Z</time>
      </trkpt>
      <trkpt lat="43.58754" lon="6.27857">
        <ele>444.27</ele>
        <time>2016-10-07T08:27:10Z</time>
      </trkpt>
      <trkpt lat="43.58752" lon="6.2785">
        <ele>442.82</ele>
        <time>2016-10-07T08:27:35Z</time>
      </trkpt>
      <trkpt lat="43.58748" lon="6.27834">
        <ele>440.9</ele>
        <time>2016-10-07T08:27:51Z</time>
      </trkpt>
      <trkpt lat="43.58742" lon="6.27822">
        <ele>440.42</ele>
        <time>2016-10-07T08:28:02Z</time>
      </trkpt>
      <trkpt lat="43.58744" lon="6.27801">
        <ele>438.98</ele>
        <time>2016-10-07T08:28:17Z</time>
      </trkpt>
      <trkpt lat="43.58749" lon="6.27786">
        <ele>438.98</ele>
        <time>2016-10-07T08:28:31Z</time>
      </trkpt>
      <trkpt lat="43.58749" lon="6.27767">
        <ele>438.02</ele>
        <time>2016-10-07T08:28:43Z</time>
      </trkpt>
      <trkpt lat="43.58754" lon="6.27744">
        <ele>440.9</ele>
        <time>2016-10-07T08:28:59Z</time>
      </trkpt>
      <trkpt lat="43.58752" lon="6.27736">
        <ele>440.9</ele>
        <time>2016-10-07T08:29:04Z</time>
      </trkpt>
      <trkpt lat="43.58751" lon="6.27732">
        <ele>441.38</ele>
        <time>2016-10-07T08:29:07Z</time>
      </trkpt>
      <trkpt lat="43.58749" lon="6.27723">
        <ele>442.34</ele>
        <time>2016-10-07T08:29:13Z</time>
      </trkpt>
      <trkpt lat="43.58747" lon="6.27712">
        <ele>443.79</ele>
        <time>2016-10-07T08:29:23Z</time>
      </trkpt>
      <trkpt lat="43.58744" lon="6.27706">
        <ele>444.27</ele>
        <time>2016-10-07T08:29:28Z</time>
      </trkpt>
      <trkpt lat="43.58739" lon="6.27703">
        <ele>444.75</ele>
        <time>2016-10-07T08:29:31Z</time>
      </trkpt>
      <trkpt lat="43.58737" lon="6.27699">
        <ele>445.23</ele>
        <time>2016-10-07T08:29:33Z</time>
      </trkpt>
      <trkpt lat="43.58737" lon="6.27692">
        <ele>445.23</ele>
        <time>2016-10-07T08:29:38Z</time>
      </trkpt>
      <trkpt lat="43.58734" lon="6.27674">
        <ele>441.86</ele>
        <time>2016-10-07T08:29:52Z</time>
      </trkpt>
      <trkpt lat="43.58735" lon="6.2767">
        <ele>441.38</ele>
        <time>2016-10-07T08:29:56Z</time>
      </trkpt>
      <trkpt lat="43.58737" lon="6.27657">
        <ele>438.5</ele>
        <time>2016-10-07T08:30:10Z</time>
      </trkpt>
      <trkpt lat="43.58742" lon="6.2764">
        <ele>435.61</ele>
        <time>2016-10-07T08:30:22Z</time>
      </trkpt>
      <trkpt lat="43.5874" lon="6.27614">
        <ele>433.69</ele>
        <time>2016-10-07T08:30:37Z</time>
      </trkpt>
      <trkpt lat="43.58739" lon="6.27613">
        <ele>433.21</ele>
        <time>2016-10-07T08:30:38Z</time>
      </trkpt>
      <trkpt lat="43.58731" lon="6.27606">
        <ele>431.29</ele>
        <time>2016-10-07T08:30:47Z</time>
      </trkpt>
      <trkpt lat="43.58717" lon="6.27599">
        <ele>429.37</ele>
        <time>2016-10-07T08:31:01Z</time>
      </trkpt>
      <trkpt lat="43.58715" lon="6.27596">
        <ele>429.85</ele>
        <time>2016-10-07T08:31:16Z</time>
      </trkpt>
      <trkpt lat="43.58715" lon="6.27596">
        <ele>429.85</ele>
        <time>2016-10-07T08:31:40Z</time>
      </trkpt>
      <trkpt lat="43.58715" lon="6.27595">
        <ele>430.33</ele>
        <time>2016-10-07T08:31:48Z</time>
      </trkpt>
      <trkpt lat="43.58715" lon="6.27587">
        <ele>430.33</ele>
        <time>2016-10-07T08:31:54Z</time>
      </trkpt>
      <trkpt lat="43.58715" lon="6.27581">
        <ele>427.92</ele>
        <time>2016-10-07T08:32:11Z</time>
      </trkpt>
      <trkpt lat="43.58715" lon="6.27581">
        <ele>431.77</ele>
        <time>2016-10-07T08:32:12Z</time>
      </trkpt>
      <trkpt lat="43.58715" lon="6.27581">
        <ele>427.92</ele>
        <time>2016-10-07T08:32:18Z</time>
      </trkpt>
      <trkpt lat="43.58715" lon="6.2758">
        <ele>432.25</ele>
        <time>2016-10-07T08:32:19Z</time>
      </trkpt>
      <trkpt lat="43.58715" lon="6.2758">
        <ele>428.4</ele>
        <time>2016-10-07T08:32:21Z</time>
      </trkpt>
      <trkpt lat="43.58715" lon="6.2758">
        <ele>433.21</ele>
        <time>2016-10-07T08:32:22Z</time>
      </trkpt>
      <trkpt lat="43.58714" lon="6.2758">
        <ele>430.33</ele>
        <time>2016-10-07T08:32:25Z</time>
      </trkpt>
      <trkpt lat="43.58713" lon="6.2758">
        <ele>430.33</ele>
        <time>2016-10-07T08:32:45Z</time>
      </trkpt>
      <trkpt lat="43.58713" lon="6.27578">
        <ele>430.33</ele>
        <time>2016-10-07T08:33:08Z</time>
      </trkpt>
      <trkpt lat="43.58713" lon="6.27557">
        <ele>428.89</ele>
        <time>2016-10-07T08:33:19Z</time>
      </trkpt>
      <trkpt lat="43.58711" lon="6.27541">
        <ele>428.4</ele>
        <time>2016-10-07T08:33:27Z</time>
      </trkpt>
      <trkpt lat="43.58711" lon="6.27514">
        <ele>426.48</ele>
        <time>2016-10-07T08:33:40Z</time>
      </trkpt>
      <trkpt lat="43.58713" lon="6.2749">
        <ele>425.04</ele>
        <time>2016-10-07T08:33:52Z</time>
      </trkpt>
      <trkpt lat="43.58714" lon="6.27487">
        <ele>425.04</ele>
        <time>2016-10-07T08:33:54Z</time>
      </trkpt>
      <trkpt lat="43.58717" lon="6.27456">
        <ele>423.12</ele>
        <time>2016-10-07T08:34:10Z</time>
      </trkpt>
      <trkpt lat="43.58718" lon="6.27444">
        <ele>423.12</ele>
        <time>2016-10-07T08:34:16Z</time>
      </trkpt>
      <trkpt lat="43.58722" lon="6.27436">
        <ele>423.12</ele>
        <time>2016-10-07T08:34:32Z</time>
      </trkpt>
      <trkpt lat="43.5872" lon="6.27434">
        <ele>423.12</ele>
        <time>2016-10-07T08:34:48Z</time>
      </trkpt>
      <trkpt lat="43.58718" lon="6.27432">
        <ele>423.12</ele>
        <time>2016-10-07T08:35:14Z</time>
      </trkpt>
      <trkpt lat="43.58717" lon="6.27431">
        <ele>422.64</ele>
        <time>2016-10-07T08:35:22Z</time>
      </trkpt>
      <trkpt lat="43.58711" lon="6.27413">
        <ele>421.68</ele>
        <time>2016-10-07T08:35:36Z</time>
      </trkpt>
      <trkpt lat="43.58709" lon="6.2741">
        <ele>421.68</ele>
        <time>2016-10-07T08:35:50Z</time>
      </trkpt>
      <trkpt lat="43.58709" lon="6.2741">
        <ele>421.68</ele>
        <time>2016-10-07T08:35:51Z</time>
      </trkpt>
      <trkpt lat="43.58703" lon="6.27403">
        <ele>421.19</ele>
        <time>2016-10-07T08:35:58Z</time>
      </trkpt>
      <trkpt lat="43.58699" lon="6.27394">
        <ele>421.19</ele>
        <time>2016-10-07T08:36:12Z</time>
      </trkpt>
      <trkpt lat="43.587" lon="6.2739">
        <ele>420.71</ele>
        <time>2016-10-07T08:36:27Z</time>
      </trkpt>
      <trkpt lat="43.58702" lon="6.2738">
        <ele>418.79</ele>
        <time>2016-10-07T08:36:35Z</time>
      </trkpt>
      <trkpt lat="43.58695" lon="6.27369">
        <ele>417.35</ele>
        <time>2016-10-07T08:36:48Z</time>
      </trkpt>
      <trkpt lat="43.58691" lon="6.27366">
        <ele>416.87</ele>
        <time>2016-10-07T08:37:04Z</time>
      </trkpt>
      <trkpt lat="43.58679" lon="6.27358">
        <ele>413.5</ele>
        <time>2016-10-07T08:37:13Z</time>
      </trkpt>
      <trkpt lat="43.58678" lon="6.27357">
        <ele>418.79</ele>
        <time>2016-10-07T08:37:14Z</time>
      </trkpt>
      <trkpt lat="43.58677" lon="6.27357">
        <ele>413.5</ele>
        <time>2016-10-07T08:37:15Z</time>
      </trkpt>
      <trkpt lat="43.58676" lon="6.27357">
        <ele>417.35</ele>
        <time>2016-10-07T08:37:16Z</time>
      </trkpt>
      <trkpt lat="43.58668" lon="6.27353">
        <ele>411.1</ele>
        <time>2016-10-07T08:37:26Z</time>
      </trkpt>
      <trkpt lat="43.58668" lon="6.27353">
        <ele>420.23</ele>
        <time>2016-10-07T08:37:27Z</time>
      </trkpt>
      <trkpt lat="43.58667" lon="6.27352">
        <ele>409.18</ele>
        <time>2016-10-07T08:37:28Z</time>
      </trkpt>
      <trkpt lat="43.58666" lon="6.27352">
        <ele>414.95</ele>
        <time>2016-10-07T08:37:29Z</time>
      </trkpt>
      <trkpt lat="43.58664" lon="6.2735">
        <ele>410.14</ele>
        <time>2016-10-07T08:37:31Z</time>
      </trkpt>
      <trkpt lat="43.58663" lon="6.27349">
        <ele>419.27</ele>
        <time>2016-10-07T08:37:32Z</time>
      </trkpt>
      <trkpt lat="43.58662" lon="6.27349">
        <ele>414.95</ele>
        <time>2016-10-07T08:37:33Z</time>
      </trkpt>
      <trkpt lat="43.5866" lon="6.27348">
        <ele>413.02</ele>
        <time>2016-10-07T08:37:36Z</time>
      </trkpt>
      <trkpt lat="43.58659" lon="6.27348">
        <ele>417.35</ele>
        <time>2016-10-07T08:37:37Z</time>
      </trkpt>
      <trkpt lat="43.58658" lon="6.27347">
        <ele>414.47</ele>
        <time>2016-10-07T08:37:38Z</time>
      </trkpt>
      <trkpt lat="43.58656" lon="6.27345">
        <ele>413.98</ele>
        <time>2016-10-07T08:37:42Z</time>
      </trkpt>
      <trkpt lat="43.58649" lon="6.27342">
        <ele>413.98</ele>
        <time>2016-10-07T08:37:50Z</time>
      </trkpt>
      <trkpt lat="43.58647" lon="6.27341">
        <ele>413.5</ele>
        <time>2016-10-07T08:37:53Z</time>
      </trkpt>
      <trkpt lat="43.58635" lon="6.27333">
        <ele>413.02</ele>
        <time>2016-10-07T08:38:02Z</time>
      </trkpt>
      <trkpt lat="43.58631" lon="6.27321">
        <ele>412.06</ele>
        <time>2016-10-07T08:38:11Z</time>
      </trkpt>
      <trkpt lat="43.58621" lon="6.2731">
        <ele>410.62</ele>
        <time>2016-10-07T08:38:22Z</time>
      </trkpt>
      <trkpt lat="43.58618" lon="6.27307">
        <ele>410.14</ele>
        <time>2016-10-07T08:38:25Z</time>
      </trkpt>
      <trkpt lat="43.58609" lon="6.27297">
        <ele>410.14</ele>
        <time>2016-10-07T08:38:35Z</time>
      </trkpt>
      <trkpt lat="43.58607" lon="6.27294">
        <ele>409.66</ele>
        <time>2016-10-07T08:38:37Z</time>
      </trkpt>
      <trkpt lat="43.58601" lon="6.27279">
        <ele>409.66</ele>
        <time>2016-10-07T08:38:46Z</time>
      </trkpt>
      <trkpt lat="43.58599" lon="6.27245">
        <ele>407.74</ele>
        <time>2016-10-07T08:39:01Z</time>
      </trkpt>
      <trkpt lat="43.58592" lon="6.27229">
        <ele>407.26</ele>
        <time>2016-10-07T08:39:10Z</time>
      </trkpt>
      <trkpt lat="43.58573" lon="6.27226">
        <ele>406.77</ele>
        <time>2016-10-07T08:39:24Z</time>
      </trkpt>
      <trkpt lat="43.58565" lon="6.27227">
        <ele>406.77</ele>
        <time>2016-10-07T08:39:29Z</time>
      </trkpt>
      <trkpt lat="43.58554" lon="6.27237">
        <ele>407.26</ele>
        <time>2016-10-07T08:39:37Z</time>
      </trkpt>
      <trkpt lat="43.58549" lon="6.27241">
        <ele>407.26</ele>
        <time>2016-10-07T08:39:40Z</time>
      </trkpt>
      <trkpt lat="43.58544" lon="6.2725">
        <ele>407.74</ele>
        <time>2016-10-07T08:39:45Z</time>
      </trkpt>
      <trkpt lat="43.58542" lon="6.27255">
        <ele>408.22</ele>
        <time>2016-10-07T08:39:48Z</time>
      </trkpt>
      <trkpt lat="43.58541" lon="6.27259">
        <ele>408.7</ele>
        <time>2016-10-07T08:39:51Z</time>
      </trkpt>
      <trkpt lat="43.58548" lon="6.27275">
        <ele>409.66</ele>
        <time>2016-10-07T08:40:04Z</time>
      </trkpt>
      <trkpt lat="43.58543" lon="6.27284">
        <ele>412.54</ele>
        <time>2016-10-07T08:40:15Z</time>
      </trkpt>
      <trkpt lat="43.58535" lon="6.27284">
        <ele>413.98</ele>
        <time>2016-10-07T08:40:25Z</time>
      </trkpt>
      <trkpt lat="43.58531" lon="6.27283">
        <ele>413.98</ele>
        <time>2016-10-07T08:40:29Z</time>
      </trkpt>
      <trkpt lat="43.58528" lon="6.27287">
        <ele>413.5</ele>
        <time>2016-10-07T08:40:43Z</time>
      </trkpt>
      <trkpt lat="43.58528" lon="6.27287">
        <ele>413.5</ele>
        <time>2016-10-07T08:41:02Z</time>
      </trkpt>
      <trkpt lat="43.58528" lon="6.27284">
        <ele>413.98</ele>
        <time>2016-10-07T08:41:23Z</time>
      </trkpt>
      <trkpt lat="43.58527" lon="6.27287">
        <ele>413.98</ele>
        <time>2016-10-07T08:41:36Z</time>
      </trkpt>
      <trkpt lat="43.58527" lon="6.27287">
        <ele>413.98</ele>
        <time>2016-10-07T08:42:02Z</time>
      </trkpt>
      <trkpt lat="43.58528" lon="6.27287">
        <ele>413.98</ele>
        <time>2016-10-07T08:42:29Z</time>
      </trkpt>
      <trkpt lat="43.58528" lon="6.27287">
        <ele>413.98</ele>
        <time>2016-10-07T08:42:53Z</time>
      </trkpt>
      <trkpt lat="43.58528" lon="6.27287">
        <ele>413.98</ele>
        <time>2016-10-07T08:43:17Z</time>
      </trkpt>
      <trkpt lat="43.58528" lon="6.27287">
        <ele>413.5</ele>
        <time>2016-10-07T08:43:42Z</time>
      </trkpt>
      <trkpt lat="43.58528" lon="6.27288">
        <ele>413.98</ele>
        <time>2016-10-07T08:44:04Z</time>
      </trkpt>
      <trkpt lat="43.58528" lon="6.27288">
        <ele>413.98</ele>
        <time>2016-10-07T08:44:31Z</time>
      </trkpt>
      <trkpt lat="43.58528" lon="6.27287">
        <ele>413.5</ele>
        <time>2016-10-07T08:44:56Z</time>
      </trkpt>
      <trkpt lat="43.58528" lon="6.27287">
        <ele>413.5</ele>
        <time>2016-10-07T08:45:09Z</time>
      </trkpt>
      <trkpt lat="43.58532" lon="6.27289">
        <ele>413.98</ele>
        <time>2016-10-07T08:45:14Z</time>
      </trkpt>
      <trkpt lat="43.58538" lon="6.27292">
        <ele>413.5</ele>
        <time>2016-10-07T08:45:19Z</time>
      </trkpt>
      <trkpt lat="43.58542" lon="6.27288">
        <ele>412.06</ele>
        <time>2016-10-07T08:45:27Z</time>
      </trkpt>
      <trkpt lat="43.58545" lon="6.27283">
        <ele>410.62</ele>
        <time>2016-10-07T08:45:33Z</time>
      </trkpt>
      <trkpt lat="43.58544" lon="6.2728">
        <ele>410.14</ele>
        <time>2016-10-07T08:45:35Z</time>
      </trkpt>
      <trkpt lat="43.58544" lon="6.27271">
        <ele>409.18</ele>
        <time>2016-10-07T08:45:41Z</time>
      </trkpt>
      <trkpt lat="43.58548" lon="6.2725">
        <ele>407.74</ele>
        <time>2016-10-07T08:45:52Z</time>
      </trkpt>
      <trkpt lat="43.58558" lon="6.27228">
        <ele>406.77</ele>
        <time>2016-10-07T08:46:05Z</time>
      </trkpt>
      <trkpt lat="43.58562" lon="6.27225">
        <ele>406.29</ele>
        <time>2016-10-07T08:46:10Z</time>
      </trkpt>
      <trkpt lat="43.58582" lon="6.27231">
        <ele>406.29</ele>
        <time>2016-10-07T08:46:26Z</time>
      </trkpt>
      <trkpt lat="43.58594" lon="6.27225">
        <ele>405.81</ele>
        <time>2016-10-07T08:46:35Z</time>
      </trkpt>
      <trkpt lat="43.58594" lon="6.27216">
        <ele>405.33</ele>
        <time>2016-10-07T08:46:47Z</time>
      </trkpt>
      <trkpt lat="43.58593" lon="6.27216">
        <ele>405.33</ele>
        <time>2016-10-07T08:46:57Z</time>
      </trkpt>
      <trkpt lat="43.58593" lon="6.27211">
        <ele>405.33</ele>
        <time>2016-10-07T08:47:01Z</time>
      </trkpt>
      <trkpt lat="43.5859" lon="6.27186">
        <ele>403.89</ele>
        <time>2016-10-07T08:47:16Z</time>
      </trkpt>
      <trkpt lat="43.58589" lon="6.27178">
        <ele>403.41</ele>
        <time>2016-10-07T08:47:29Z</time>
      </trkpt>
      <trkpt lat="43.58586" lon="6.27162">
        <ele>403.41</ele>
        <time>2016-10-07T08:47:37Z</time>
      </trkpt>
      <trkpt lat="43.58588" lon="6.27151">
        <ele>402.45</ele>
        <time>2016-10-07T08:47:43Z</time>
      </trkpt>
      <trkpt lat="43.58587" lon="6.27121">
        <ele>401.49</ele>
        <time>2016-10-07T08:47:58Z</time>
      </trkpt>
      <trkpt lat="43.58586" lon="6.27095">
        <ele>400.53</ele>
        <time>2016-10-07T08:48:10Z</time>
      </trkpt>
      <trkpt lat="43.58586" lon="6.27091">
        <ele>400.53</ele>
        <time>2016-10-07T08:48:16Z</time>
      </trkpt>
      <trkpt lat="43.58591" lon="6.27069">
        <ele>399.08</ele>
        <time>2016-10-07T08:48:28Z</time>
      </trkpt>
      <trkpt lat="43.58594" lon="6.27052">
        <ele>396.2</ele>
        <time>2016-10-07T08:48:41Z</time>
      </trkpt>
      <trkpt lat="43.5859" lon="6.27046">
        <ele>393.8</ele>
        <time>2016-10-07T08:48:55Z</time>
      </trkpt>
      <trkpt lat="43.58586" lon="6.27037">
        <ele>391.87</ele>
        <time>2016-10-07T08:49:08Z</time>
      </trkpt>
      <trkpt lat="43.58581" lon="6.27029">
        <ele>389.95</ele>
        <time>2016-10-07T08:49:19Z</time>
      </trkpt>
      <trkpt lat="43.58578" lon="6.27023">
        <ele>388.51</ele>
        <time>2016-10-07T08:49:24Z</time>
      </trkpt>
      <trkpt lat="43.58577" lon="6.27011">
        <ele>388.03</ele>
        <time>2016-10-07T08:49:31Z</time>
      </trkpt>
      <trkpt lat="43.58577" lon="6.27">
        <ele>387.07</ele>
        <time>2016-10-07T08:49:37Z</time>
      </trkpt>
      <trkpt lat="43.5857" lon="6.26977">
        <ele>385.15</ele>
        <time>2016-10-07T08:49:51Z</time>
      </trkpt>
      <trkpt lat="43.58566" lon="6.26973">
        <ele>383.7</ele>
        <time>2016-10-07T08:50:05Z</time>
      </trkpt>
      <trkpt lat="43.58567" lon="6.26972">
        <ele>383.22</ele>
        <time>2016-10-07T08:50:22Z</time>
      </trkpt>
      <trkpt lat="43.58568" lon="6.26965">
        <ele>380.82</ele>
        <time>2016-10-07T08:50:33Z</time>
      </trkpt>
      <trkpt lat="43.58568" lon="6.26964">
        <ele>380.82</ele>
        <time>2016-10-07T08:50:34Z</time>
      </trkpt>
      <trkpt lat="43.58568" lon="6.26959">
        <ele>379.86</ele>
        <time>2016-10-07T08:50:39Z</time>
      </trkpt>
      <trkpt lat="43.58567" lon="6.26956">
        <ele>378.9</ele>
        <time>2016-10-07T08:50:42Z</time>
      </trkpt>
      <trkpt lat="43.58565" lon="6.26952">
        <ele>378.42</ele>
        <time>2016-10-07T08:50:46Z</time>
      </trkpt>
      <trkpt lat="43.5856" lon="6.26937">
        <ele>376.01</ele>
        <time>2016-10-07T08:51:01Z</time>
      </trkpt>
      <trkpt lat="43.58553" lon="6.26933">
        <ele>374.09</ele>
        <time>2016-10-07T08:51:11Z</time>
      </trkpt>
      <trkpt lat="43.58549" lon="6.26933">
        <ele>374.09</ele>
        <time>2016-10-07T08:51:22Z</time>
      </trkpt>
      <trkpt lat="43.58544" lon="6.26934">
        <ele>374.09</ele>
        <time>2016-10-07T08:51:26Z</time>
      </trkpt>
      <trkpt lat="43.58519" lon="6.26928">
        <ele>373.13</ele>
        <time>2016-10-07T08:51:40Z</time>
      </trkpt>
      <trkpt lat="43.58496" lon="6.26921">
        <ele>372.17</ele>
        <time>2016-10-07T08:51:56Z</time>
      </trkpt>
      <trkpt lat="43.58474" lon="6.2691">
        <ele>371.21</ele>
        <time>2016-10-07T08:52:11Z</time>
      </trkpt>
      <trkpt lat="43.58462" lon="6.26902">
        <ele>370.73</ele>
        <time>2016-10-07T08:52:24Z</time>
      </trkpt>
      <trkpt lat="43.58455" lon="6.26903">
        <ele>370.24</ele>
        <time>2016-10-07T08:52:37Z</time>
      </trkpt>
      <trkpt lat="43.58455" lon="6.26902">
        <ele>370.24</ele>
        <time>2016-10-07T08:52:47Z</time>
      </trkpt>
      <trkpt lat="43.58451" lon="6.26902">
        <ele>369.76</ele>
        <time>2016-10-07T08:52:51Z</time>
      </trkpt>
      <trkpt lat="43.58432" lon="6.26906">
        <ele>367.84</ele>
        <time>2016-10-07T08:53:05Z</time>
      </trkpt>
      <trkpt lat="43.58415" lon="6.26911">
        <ele>365.92</ele>
        <time>2016-10-07T08:53:18Z</time>
      </trkpt>
      <trkpt lat="43.58399" lon="6.26919">
        <ele>364</ele>
        <time>2016-10-07T08:53:32Z</time>
      </trkpt>
      <trkpt lat="43.58388" lon="6.26931">
        <ele>362.55</ele>
        <time>2016-10-07T08:53:44Z</time>
      </trkpt>
      <trkpt lat="43.58375" lon="6.26943">
        <ele>361.59</ele>
        <time>2016-10-07T08:53:56Z</time>
      </trkpt>
      <trkpt lat="43.58358" lon="6.26953">
        <ele>360.63</ele>
        <time>2016-10-07T08:54:09Z</time>
      </trkpt>
      <trkpt lat="43.58355" lon="6.26962">
        <ele>359.67</ele>
        <time>2016-10-07T08:54:14Z</time>
      </trkpt>
      <trkpt lat="43.58355" lon="6.26989">
        <ele>359.19</ele>
        <time>2016-10-07T08:54:28Z</time>
      </trkpt>
      <trkpt lat="43.58356" lon="6.26992">
        <ele>359.19</ele>
        <time>2016-10-07T08:54:30Z</time>
      </trkpt>
      <trkpt lat="43.58358" lon="6.26997">
        <ele>359.67</ele>
        <time>2016-10-07T08:54:33Z</time>
      </trkpt>
      <trkpt lat="43.5836" lon="6.27007">
        <ele>358.71</ele>
        <time>2016-10-07T08:54:37Z</time>
      </trkpt>
      <trkpt lat="43.58363" lon="6.27035">
        <ele>357.75</ele>
        <time>2016-10-07T08:54:49Z</time>
      </trkpt>
      <trkpt lat="43.5837" lon="6.27057">
        <ele>357.27</ele>
        <time>2016-10-07T08:55:01Z</time>
      </trkpt>
      <trkpt lat="43.58374" lon="6.2707">
        <ele>356.79</ele>
        <time>2016-10-07T08:55:08Z</time>
      </trkpt>
      <trkpt lat="43.58374" lon="6.27079">
        <ele>356.79</ele>
        <time>2016-10-07T08:55:12Z</time>
      </trkpt>
      <trkpt lat="43.58373" lon="6.27087">
        <ele>356.31</ele>
        <time>2016-10-07T08:55:17Z</time>
      </trkpt>
      <trkpt lat="43.58372" lon="6.27091">
        <ele>355.34</ele>
        <time>2016-10-07T08:55:31Z</time>
      </trkpt>
      <trkpt lat="43.58372" lon="6.2709">
        <ele>355.34</ele>
        <time>2016-10-07T08:55:32Z</time>
      </trkpt>
      <trkpt lat="43.5837" lon="6.27083">
        <ele>353.9</ele>
        <time>2016-10-07T08:55:37Z</time>
      </trkpt>
      <trkpt lat="43.58367" lon="6.2708">
        <ele>352.46</ele>
        <time>2016-10-07T08:55:40Z</time>
      </trkpt>
      <trkpt lat="43.58357" lon="6.27079">
        <ele>351.02</ele>
        <time>2016-10-07T08:55:46Z</time>
      </trkpt>
      <trkpt lat="43.58344" lon="6.27083">
        <ele>349.1</ele>
        <time>2016-10-07T08:55:57Z</time>
      </trkpt>
      <trkpt lat="43.58339" lon="6.27083">
        <ele>348.62</ele>
        <time>2016-10-07T08:56:06Z</time>
      </trkpt>
      <trkpt lat="43.58336" lon="6.27084">
        <ele>348.13</ele>
        <time>2016-10-07T08:56:08Z</time>
      </trkpt>
      <trkpt lat="43.58315" lon="6.2709">
        <ele>345.73</ele>
        <time>2016-10-07T08:56:21Z</time>
      </trkpt>
      <trkpt lat="43.58298" lon="6.27094">
        <ele>344.29</ele>
        <time>2016-10-07T08:56:35Z</time>
      </trkpt>
      <trkpt lat="43.58283" lon="6.27099">
        <ele>341.89</ele>
        <time>2016-10-07T08:56:46Z</time>
      </trkpt>
      <trkpt lat="43.58277" lon="6.27104">
        <ele>341.41</ele>
        <time>2016-10-07T08:56:51Z</time>
      </trkpt>
      <trkpt lat="43.58258" lon="6.27102">
        <ele>339.48</ele>
        <time>2016-10-07T08:57:03Z</time>
      </trkpt>
      <trkpt lat="43.5824" lon="6.27105">
        <ele>337.56</ele>
        <time>2016-10-07T08:57:17Z</time>
      </trkpt>
      <trkpt lat="43.58235" lon="6.27107">
        <ele>337.08</ele>
        <time>2016-10-07T08:57:20Z</time>
      </trkpt>
      <trkpt lat="43.58216" lon="6.27109">
        <ele>335.16</ele>
        <time>2016-10-07T08:57:34Z</time>
      </trkpt>
      <trkpt lat="43.58204" lon="6.27113">
        <ele>334.68</ele>
        <time>2016-10-07T08:57:46Z</time>
      </trkpt>
      <trkpt lat="43.58191" lon="6.27114">
        <ele>333.23</ele>
        <time>2016-10-07T08:57:58Z</time>
      </trkpt>
      <trkpt lat="43.58174" lon="6.27119">
        <ele>332.75</ele>
        <time>2016-10-07T08:58:12Z</time>
      </trkpt>
      <trkpt lat="43.58158" lon="6.27127">
        <ele>332.27</ele>
        <time>2016-10-07T08:58:25Z</time>
      </trkpt>
      <trkpt lat="43.58151" lon="6.2713">
        <ele>331.79</ele>
        <time>2016-10-07T08:58:31Z</time>
      </trkpt>
      <trkpt lat="43.58136" lon="6.2713">
        <ele>329.87</ele>
        <time>2016-10-07T08:58:46Z</time>
      </trkpt>
      <trkpt lat="43.58135" lon="6.27128">
        <ele>329.39</ele>
        <time>2016-10-07T08:58:49Z</time>
      </trkpt>
      <trkpt lat="43.58134" lon="6.27122">
        <ele>329.39</ele>
        <time>2016-10-07T08:58:56Z</time>
      </trkpt>
      <trkpt lat="43.58131" lon="6.271">
        <ele>330.35</ele>
        <time>2016-10-07T08:59:09Z</time>
      </trkpt>
      <trkpt lat="43.58125" lon="6.27078">
        <ele>331.79</ele>
        <time>2016-10-07T08:59:23Z</time>
      </trkpt>
      <trkpt lat="43.58119" lon="6.27058">
        <ele>332.75</ele>
        <time>2016-10-07T08:59:37Z</time>
      </trkpt>
      <trkpt lat="43.58116" lon="6.27035">
        <ele>333.71</ele>
        <time>2016-10-07T08:59:51Z</time>
      </trkpt>
      <trkpt lat="43.58116" lon="6.27035">
        <ele>333.71</ele>
        <time>2016-10-07T09:00:06Z</time>
      </trkpt>
      <trkpt lat="43.58116" lon="6.27035">
        <ele>334.2</ele>
        <time>2016-10-07T09:00:21Z</time>
      </trkpt>
      <trkpt lat="43.58116" lon="6.27035">
        <ele>330.35</ele>
        <time>2016-10-07T09:00:31Z</time>
      </trkpt>
      <trkpt lat="43.58116" lon="6.27034">
        <ele>338.04</ele>
        <time>2016-10-07T09:00:32Z</time>
      </trkpt>
      <trkpt lat="43.58116" lon="6.27034">
        <ele>334.2</ele>
        <time>2016-10-07T09:00:34Z</time>
      </trkpt>
      <trkpt lat="43.58117" lon="6.27034">
        <ele>333.71</ele>
        <time>2016-10-07T09:00:35Z</time>
      </trkpt>
      <trkpt lat="43.58117" lon="6.27034">
        <ele>337.08</ele>
        <time>2016-10-07T09:00:39Z</time>
      </trkpt>
      <trkpt lat="43.58117" lon="6.27034">
        <ele>334.2</ele>
        <time>2016-10-07T09:00:41Z</time>
      </trkpt>
      <trkpt lat="43.58115" lon="6.27036">
        <ele>338.04</ele>
        <time>2016-10-07T09:01:01Z</time>
      </trkpt>
      <trkpt lat="43.58115" lon="6.27036">
        <ele>331.79</ele>
        <time>2016-10-07T09:01:02Z</time>
      </trkpt>
      <trkpt lat="43.58115" lon="6.27036">
        <ele>336.12</ele>
        <time>2016-10-07T09:01:03Z</time>
      </trkpt>
      <trkpt lat="43.58115" lon="6.27036">
        <ele>332.75</ele>
        <time>2016-10-07T09:01:06Z</time>
      </trkpt>
    </trkseg>
  </trk>
</gpx>